Wetterdaten: Montag, 24.08.2020
Datum Zeit Temp. Aussen Temp. o. S. Temp +5cm Feuchte Auss Luftdruck Regen Sonnenschein Regendauer Solar Windben Empfang
24.08.2020 00:00 16,7 C 16,1 C 15,6 C 90 % 1017,1 hPa 0,0 l/m 0 min 0 min 0 W/m 12,9 km/h (3 Bft) 97,87 %
24.08.2020 00:02 16,7 C 16,1 C 15,6 C 90 % 1017,1 hPa 0,0 l/m 0 min 0 min 0 W/m 3,2 km/h (1 Bft) 100,00 %
24.08.2020 00:04 16,7 C 15,6 C 15,6 C 90 % 1017,1 hPa 0,0 l/m 0 min 0 min 0 W/m 0,0 km/h (0 Bft) 97,87 %
24.08.2020 00:07 16,7 C 15,6 C 15,6 C 90 % 1017,0 hPa 0,0 l/m 0 min 0 min 0 W/m 0,0 km/h (0 Bft) 72,15 %
24.08.2020 00:08 16,7 C 16,1 C 15,6 C 90 % 1017,0 hPa 0,0 l/m 0 min 0 min 0 W/m 0,0 km/h (0 Bft) 100,00 %
24.08.2020 00:10 16,7 C 15,6 C 15,6 C 90 % 1017,0 hPa 0,0 l/m 0 min 0 min 0 W/m 3,2 km/h (1 Bft) 97,87 %
24.08.2020 00:12 16,7 C 15,6 C 15,6 C 90 % 1017,1 hPa 0,0 l/m 0 min 0 min 0 W/m 0,0 km/h (0 Bft) 97,87 %
24.08.2020 00:14 16,7 C 15,6 C 15,6 C 90 % 1017,0 hPa 0,0 l/m 0 min 0 min 0 W/m 0,0 km/h (0 Bft) 97,87 %
24.08.2020 00:16 16,7 C 15,6 C 15,6 C 90 % 1017,1 hPa 0,0 l/m 0 min 0 min 0 W/m 3,2 km/h (1 Bft) 97,87 %
24.08.2020 00:18 16,7 C 15,6 C 15,6 C 90 % 1017,1 hPa 0,0 l/m 0 min 0 min 0 W/m 6,4 km/h (2 Bft) 100,00 %
24.08.2020 00:20 16,7 C 15,6 C 15,6 C 90 % 1017,1 hPa 0,0 l/m 0 min 0 min 0 W/m 0,0 km/h (0 Bft) 97,83 %
24.08.2020 00:22 16,7 C 15,6 C 15,6 C 90 % 1017,1 hPa 0,0 l/m 0 min 0 min 0 W/m 0,0 km/h (0 Bft) 100,00 %
24.08.2020 00:24 16,7 C 15,6 C 15,6 C 90 % 1017,1 hPa 0,0 l/m 0 min 0 min 0 W/m 0,0 km/h (0 Bft) 97,87 %
24.08.2020 00:26 16,7 C 15,6 C 15,6 C 90 % 1017,1 hPa 0,0 l/m 0 min 0 min 0 W/m 0,0 km/h (0 Bft) 100,00 %
24.08.2020 00:28 16,7 C 15,6 C 15,6 C 90 % 1017,1 hPa 0,0 l/m 0 min 0 min 0 W/m 0,0 km/h (0 Bft) 97,87 %
24.08.2020 00:30 16,7 C 15,6 C 15,6 C 90 % 1017,1 hPa 0,0 l/m 0 min 0 min 0 W/m 0,0 km/h (0 Bft) 100,00 %
24.08.2020 00:32 16,7 C 15,6 C 15,6 C 90 % 1017,1 hPa 0,0 l/m 0 min 0 min 0 W/m 0,0 km/h (0 Bft) 97,87 %
24.08.2020 00:34 16,7 C 15,6 C 15,6 C 90 % 1017,1 hPa 0,0 l/m 0 min 0 min 0 W/m 0,0 km/h (0 Bft) 100,00 %
24.08.2020 00:36 16,7 C 16,1 C 15,6 C 90 % 1017,1 hPa 0,0 l/m 0 min 0 min 0 W/m 0,0 km/h (0 Bft) 97,87 %
24.08.2020 00:38 16,7 C 16,1 C 15,6 C 90 % 1017,1 hPa 0,0 l/m 0 min 0 min 0 W/m 0,0 km/h (0 Bft) 97,87 %
24.08.2020 00:40 16,7 C 16,1 C 15,6 C 90 % 1017,1 hPa 0,0 l/m 0 min 0 min 0 W/m 0,0 km/h (0 Bft) 95,74 %
24.08.2020 00:42 16,7 C 16,1 C 16,1 C 90 % 1017,1 hPa 0,0 l/m 0 min 0 min 0 W/m 0,0 km/h (0 Bft) 95,65 %
24.08.2020 00:44 16,8 C 16,1 C 16,1 C 90 % 1017,0 hPa 0,0 l/m 0 min 0 min 0 W/m 6,4 km/h (2 Bft) 98,04 %
24.08.2020 00:46 16,8 C 16,1 C 16,1 C 91 % 1017,0 hPa 0,0 l/m 0 min 0 min 0 W/m 6,4 km/h (2 Bft) 97,87 %
24.08.2020 00:48 16,8 C 16,1 C 16,1 C 91 % 1017,0 hPa 0,0 l/m 0 min 0 min 0 W/m 0,0 km/h (0 Bft) 97,87 %
24.08.2020 00:50 16,8 C 16,1 C 16,1 C 91 % 1017,0 hPa 0,0 l/m 0 min 0 min 0 W/m 0,0 km/h (0 Bft) 97,87 %
24.08.2020 00:52 16,8 C 16,1 C 16,1 C 91 % 1017,0 hPa 0,0 l/m 0 min 0 min 0 W/m 0,0 km/h (0 Bft) 93,62 %
24.08.2020 00:54 16,8 C 16,1 C 16,1 C 91 % 1017,0 hPa 0,0 l/m 0 min 0 min 0 W/m 6,4 km/h (2 Bft) 97,87 %
24.08.2020 00:56 16,8 C 16,1 C 16,1 C 91 % 1017,0 hPa 0,0 l/m 0 min 0 min 0 W/m 3,2 km/h (1 Bft) 97,83 %
24.08.2020 00:58 16,8 C 16,1 C 16,1 C 91 % 1017,0 hPa 0,0 l/m 0 min 0 min 0 W/m 3,2 km/h (1 Bft) 97,87 %
24.08.2020 01:00 16,8 C 16,1 C 16,1 C 91 % 1017,0 hPa 0,0 l/m 0 min 0 min 0 W/m 3,2 km/h (1 Bft) 97,87 %
24.08.2020 01:02 16,8 C 16,1 C 16,1 C 91 % 1017,0 hPa 0,0 l/m 0 min 0 min 0 W/m 0,0 km/h (0 Bft) 97,87 %
24.08.2020 01:04 16,8 C 16,1 C 16,1 C 91 % 1017,0 hPa 0,0 l/m 0 min 0 min 0 W/m 0,0 km/h (0 Bft) 97,78 %
24.08.2020 01:06 16,8 C 16,1 C 16,1 C 90 % 1017,0 hPa 0,0 l/m 0 min 0 min 0 W/m 3,2 km/h (1 Bft) 97,87 %
24.08.2020 01:08 16,9 C 16,1 C 16,1 C 90 % 1016,9 hPa 0,0 l/m 0 min 0 min 0 W/m 3,2 km/h (1 Bft) 97,83 %
24.08.2020 01:10 16,9 C 16,1 C 16,1 C 90 % 1017,0 hPa 0,0 l/m 0 min 0 min 0 W/m 6,4 km/h (2 Bft) 97,87 %
24.08.2020 01:12 16,9 C 16,1 C 16,1 C 90 % 1017,0 hPa 0,0 l/m 0 min 0 min 0 W/m 12,9 km/h (3 Bft) 97,87 %
24.08.2020 01:14 16,9 C 16,1 C 16,1 C 90 % 1017,0 hPa 0,0 l/m 0 min 0 min 0 W/m 3,2 km/h (1 Bft) 97,87 %
24.08.2020 01:16 16,9 C 16,1 C 16,1 C 90 % 1017,0 hPa 0,0 l/m 0 min 0 min 0 W/m 3,2 km/h (1 Bft) 97,87 %
24.08.2020 01:18 16,9 C 16,1 C 16,1 C 90 % 1017,0 hPa 0,0 l/m 0 min 0 min 0 W/m 0,0 km/h (0 Bft) 97,83 %
24.08.2020 01:20 16,9 C 16,1 C 16,1 C 90 % 1017,0 hPa 0,0 l/m 0 min 0 min 0 W/m 22,5 km/h (4 Bft) 97,87 %
24.08.2020 01:22 16,9 C 16,1 C 16,1 C 90 % 1017,0 hPa 0,0 l/m 0 min 0 min 0 W/m 3,2 km/h (1 Bft) 97,87 %
24.08.2020 01:24 16,9 C 16,1 C 16,1 C 90 % 1017,0 hPa 0,0 l/m 0 min 0 min 0 W/m 16,1 km/h (3 Bft) 93,62 %
24.08.2020 01:26 17,0 C 16,1 C 16,1 C 90 % 1017,0 hPa 0,0 l/m 0 min 0 min 0 W/m 19,3 km/h (3 Bft) 100,00 %
24.08.2020 01:28 17,0 C 16,1 C 16,1 C 90 % 1017,0 hPa 0,0 l/m 0 min 0 min 0 W/m 3,2 km/h (1 Bft) 97,87 %
24.08.2020 01:30 17,0 C 16,1 C 16,1 C 90 % 1017,0 hPa 0,0 l/m 0 min 0 min 0 W/m 6,4 km/h (2 Bft) 100,00 %
24.08.2020 01:32 17,0 C 16,1 C 16,1 C 90 % 1017,0 hPa 0,0 l/m 0 min 0 min 0 W/m 9,7 km/h (2 Bft) 100,00 %
24.08.2020 01:34 17,0 C 16,1 C 16,1 C 90 % 1017,0 hPa 0,0 l/m 0 min 0 min 0 W/m 3,2 km/h (1 Bft) 100,00 %
24.08.2020 01:36 17,0 C 16,1 C 16,1 C 90 % 1017,0 hPa 0,0 l/m 0 min 0 min 0 W/m 0,0 km/h (0 Bft) 100,00 %
24.08.2020 01:38 17,0 C 16,1 C 16,1 C 90 % 1017,0 hPa 0,0 l/m 0 min 0 min 0 W/m 0,0 km/h (0 Bft) 100,00 %
24.08.2020 01:40 17,0 C 16,1 C 16,1 C 90 % 1017,0 hPa 0,0 l/m 0 min 0 min 0 W/m 3,2 km/h (1 Bft) 97,87 %
24.08.2020 01:42 17,0 C 16,1 C 16,1 C 89 % 1016,9 hPa 0,0 l/m 0 min 0 min 0 W/m 3,2 km/h (1 Bft) 97,87 %
24.08.2020 01:44 17,0 C 16,1 C 16,1 C 90 % 1016,9 hPa 0,0 l/m 0 min 0 min 0 W/m 3,2 km/h (1 Bft) 95,65 %
24.08.2020 01:46 17,0 C 16,1 C 16,1 C 90 % 1016,9 hPa 0,0 l/m 0 min 0 min 0 W/m 0,0 km/h (0 Bft) 95,74 %
24.08.2020 01:48 17,0 C 16,1 C 16,1 C 89 % 1016,8 hPa 0,0 l/m 0 min 0 min 0 W/m 25,7 km/h (4 Bft) 97,87 %
24.08.2020 01:50 17,0 C 16,1 C 16,1 C 89 % 1016,9 hPa 0,0 l/m 0 min 0 min 0 W/m 3,2 km/h (1 Bft) 97,87 %
24.08.2020 01:52 17,0 C 16,1 C 16,1 C 89 % 1016,8 hPa 0,0 l/m 0 min 0 min 0 W/m 3,2 km/h (1 Bft) 97,87 %
24.08.2020 01:54 17,0 C 16,1 C 16,1 C 89 % 1016,9 hPa 0,0 l/m 0 min 0 min 0 W/m 22,5 km/h (4 Bft) 95,65 %
24.08.2020 01:56 17,0 C 16,1 C 16,1 C 89 % 1016,8 hPa 0,0 l/m 0 min 0 min 0 W/m 6,4 km/h (2 Bft) 97,87 %
24.08.2020 01:58 17,0 C 16,1 C 16,1 C 89 % 1016,8 hPa 0,0 l/m 0 min 0 min 0 W/m 0,0 km/h (0 Bft) 97,87 %
24.08.2020 02:00 17,0 C 16,1 C 16,1 C 89 % 1016,9 hPa 0,0 l/m 0 min 0 min 0 W/m 12,9 km/h (3 Bft) 97,87 %
24.08.2020 02:02 17,0 C 16,1 C 16,1 C 89 % 1016,8 hPa 0,0 l/m 0 min 0 min 0 W/m 3,2 km/h (1 Bft) 95,74 %
24.08.2020 02:04 17,0 C 16,1 C 16,1 C 89 % 1016,8 hPa 0,0 l/m 0 min 0 min 0 W/m 6,4 km/h (2 Bft) 97,87 %
24.08.2020 02:06 17,0 C 16,1 C 16,1 C 89 % 1016,8 hPa 0,0 l/m 0 min 0 min 0 W/m 3,2 km/h (1 Bft) 97,83 %
24.08.2020 02:08 17,0 C 16,1 C 16,1 C 89 % 1016,8 hPa 0,0 l/m 0 min 0 min 0 W/m 12,9 km/h (3 Bft) 97,87 %
24.08.2020 02:10 17,0 C 16,1 C 16,1 C 89 % 1016,7 hPa 0,0 l/m 0 min 0 min 0 W/m 3,2 km/h (1 Bft) 97,87 %
24.08.2020 02:12 17,0 C 16,1 C 16,1 C 89 % 1016,8 hPa 0,0 l/m 0 min 0 min 0 W/m 12,9 km/h (3 Bft) 97,87 %
24.08.2020 02:14 17,0 C 16,1 C 16,1 C 89 % 1016,8 hPa 0,0 l/m 0 min 0 min 0 W/m 3,2 km/h (1 Bft) 97,87 %
24.08.2020 02:16 17,0 C 16,1 C 16,1 C 89 % 1016,8 hPa 0,0 l/m 0 min 0 min 0 W/m 3,2 km/h (1 Bft) 95,74 %
24.08.2020 02:18 17,0 C 16,1 C 16,1 C 89 % 1016,8 hPa 0,0 l/m 0 min 0 min 0 W/m 0,0 km/h (0 Bft) 97,83 %
24.08.2020 02:20 16,9 C 16,1 C 16,1 C 89 % 1016,7 hPa 0,0 l/m 0 min 0 min 0 W/m 3,2 km/h (1 Bft) 95,74 %
24.08.2020 02:22 16,9 C 16,1 C 16,1 C 89 % 1016,7 hPa 0,0 l/m 0 min 0 min 0 W/m 19,3 km/h (3 Bft) 97,87 %
24.08.2020 02:24 16,9 C 16,1 C 15,6 C 89 % 1016,6 hPa 0,0 l/m 0 min 0 min 0 W/m 3,2 km/h (1 Bft) 97,87 %
24.08.2020 02:26 16,9 C 16,1 C 15,6 C 89 % 1016,6 hPa 0,0 l/m 0 min 0 min 0 W/m 3,2 km/h (1 Bft) 97,87 %
24.08.2020 02:28 16,9 C 16,1 C 15,6 C 89 % 1016,6 hPa 0,0 l/m 0 min 0 min 0 W/m 3,2 km/h (1 Bft) 100,00 %
24.08.2020 02:30 16,9 C 16,1 C 15,6 C 89 % 1016,6 hPa 0,0 l/m 0 min 0 min 0 W/m 12,9 km/h (3 Bft) 100,00 %
24.08.2020 02:32 16,9 C 16,1 C 15,6 C 89 % 1016,6 hPa 0,0 l/m 0 min 0 min 0 W/m 0,0 km/h (0 Bft) 100,00 %
24.08.2020 02:34 16,9 C 16,1 C 15,6 C 89 % 1016,5 hPa 0,0 l/m 0 min 0 min 0 W/m 16,1 km/h (3 Bft) 100,00 %
24.08.2020 02:36 16,9 C 16,1 C 15,6 C 89 % 1016,5 hPa 0,0 l/m 0 min 0 min 0 W/m 12,9 km/h (3 Bft) 97,87 %
24.08.2020 02:38 16,9 C 16,1 C 16,1 C 89 % 1016,5 hPa 0,0 l/m 0 min 0 min 0 W/m 9,7 km/h (2 Bft) 100,00 %
24.08.2020 02:40 16,9 C 16,1 C 15,6 C 89 % 1016,4 hPa 0,0 l/m 0 min 0 min 0 W/m 0,0 km/h (0 Bft) 100,00 %
24.08.2020 02:42 16,9 C 16,1 C 15,6 C 89 % 1016,5 hPa 0,0 l/m 0 min 0 min 0 W/m 3,2 km/h (1 Bft) 100,00 %
24.08.2020 02:44 16,9 C 16,1 C 16,1 C 89 % 1016,5 hPa 0,0 l/m 0 min 0 min 0 W/m 12,9 km/h (3 Bft) 100,00 %
24.08.2020 02:46 16,9 C 16,1 C 15,6 C 89 % 1016,5 hPa 0,0 l/m 0 min 0 min 0 W/m 3,2 km/h (1 Bft) 100,00 %
24.08.2020 02:48 16,9 C 16,1 C 15,6 C 89 % 1016,4 hPa 0,0 l/m 0 min 0 min 0 W/m 3,2 km/h (1 Bft) 100,00 %
24.08.2020 02:50 16,9 C 16,1 C 15,6 C 89 % 1016,5 hPa 0,0 l/m 0 min 0 min 0 W/m 0,0 km/h (0 Bft) 97,87 %
24.08.2020 02:52 16,8 C 16,1 C 15,6 C 89 % 1016,4 hPa 0,0 l/m 0 min 0 min 0 W/m 0,0 km/h (0 Bft) 97,83 %
24.08.2020 02:54 16,9 C 16,1 C 15,6 C 89 % 1016,4 hPa 0,0 l/m 0 min 0 min 0 W/m 12,9 km/h (3 Bft) 97,87 %
24.08.2020 02:56 16,8 C 16,1 C 15,6 C 88 % 1016,4 hPa 0,0 l/m 0 min 0 min 0 W/m 0,0 km/h (0 Bft) 97,87 %
24.08.2020 02:58 16,8 C 16,1 C 15,6 C 88 % 1016,4 hPa 0,0 l/m 0 min 0 min 0 W/m 0,0 km/h (0 Bft) 97,87 %
24.08.2020 03:00 16,8 C 16,1 C 15,6 C 88 % 1016,4 hPa 0,0 l/m 0 min 0 min 0 W/m 16,1 km/h (3 Bft) 97,87 %
24.08.2020 03:02 16,8 C 16,1 C 15,6 C 88 % 1016,4 hPa 0,0 l/m 0 min 0 min 0 W/m 6,4 km/h (2 Bft) 93,62 %
24.08.2020 03:04 16,8 C 16,1 C 15,6 C 88 % 1016,4 hPa 0,0 l/m 0 min 0 min 0 W/m 0,0 km/h (0 Bft) 97,83 %
24.08.2020 03:06 16,8 C 16,1 C 15,6 C 88 % 1016,4 hPa 0,0 l/m 0 min 0 min 0 W/m 6,4 km/h (2 Bft) 97,87 %
24.08.2020 03:08 16,8 C 16,1 C 15,6 C 88 % 1016,4 hPa 0,0 l/m 0 min 0 min 0 W/m 0,0 km/h (0 Bft) 95,74 %
24.08.2020 03:10 16,8 C 16,1 C 15,6 C 88 % 1016,5 hPa 0,0 l/m 0 min 0 min 0 W/m 6,4 km/h (2 Bft) 97,87 %
24.08.2020 03:12 16,8 C 16,1 C 15,6 C 88 % 1016,4 hPa 0,0 l/m 0 min 0 min 0 W/m 6,4 km/h (2 Bft) 97,87 %
24.08.2020 03:14 16,8 C 16,1 C 15,6 C 88 % 1016,4 hPa 0,0 l/m 0 min 0 min 0 W/m 6,4 km/h (2 Bft) 93,62 %
24.08.2020 03:16 16,8 C 16,1 C 15,6 C 88 % 1016,4 hPa 0,0 l/m 0 min 0 min 0 W/m 22,5 km/h (4 Bft) 95,65 %
24.08.2020 03:18 16,8 C 16,1 C 15,6 C 88 % 1016,4 hPa 0,0 l/m 0 min 0 min 0 W/m 3,2 km/h (1 Bft) 97,87 %
24.08.2020 03:20 16,8 C 16,1 C 15,6 C 88 % 1016,4 hPa 0,0 l/m 0 min 0 min 0 W/m 0,0 km/h (0 Bft) 97,87 %
24.08.2020 03:22 16,8 C 16,1 C 15,6 C 88 % 1016,3 hPa 0,0 l/m 0 min 0 min 0 W/m 6,4 km/h (2 Bft) 93,62 %
24.08.2020 03:24 16,7 C 16,1 C 15,6 C 88 % 1016,3 hPa 0,0 l/m 0 min 0 min 0 W/m 6,4 km/h (2 Bft) 95,74 %
24.08.2020 03:26 16,8 C 16,1 C 15,6 C 88 % 1016,3 hPa 0,0 l/m 0 min 0 min 0 W/m 12,9 km/h (3 Bft) 95,74 %
24.08.2020 03:28 16,7 C 16,1 C 15,6 C 87 % 1016,3 hPa 0,0 l/m 0 min 0 min 0 W/m 3,2 km/h (1 Bft) 97,83 %
24.08.2020 03:30 16,7 C 16,1 C 15,6 C 87 % 1016,3 hPa 0,0 l/m 0 min 0 min 0 W/m 6,4 km/h (2 Bft) 97,87 %
24.08.2020 03:32 16,7 C 15,6 C 15,6 C 87 % 1016,2 hPa 0,0 l/m 0 min 0 min 0 W/m 3,2 km/h (1 Bft) 95,74 %
24.08.2020 03:34 16,7 C 16,1 C 15,6 C 87 % 1016,2 hPa 0,0 l/m 0 min 0 min 0 W/m 3,2 km/h (1 Bft) 95,74 %
24.08.2020 03:36 16,7 C 15,6 C 15,6 C 87 % 1016,2 hPa 0,0 l/m 0 min 0 min 0 W/m 3,2 km/h (1 Bft) 95,74 %
24.08.2020 03:38 16,7 C 15,6 C 15,6 C 87 % 1016,2 hPa 0,0 l/m 0 min 0 min 0 W/m 16,1 km/h (3 Bft) 91,49 %
24.08.2020 03:40 16,7 C 15,6 C 15,6 C 87 % 1016,2 hPa 0,0 l/m 0 min 0 min 0 W/m 16,1 km/h (3 Bft) 95,65 %
24.08.2020 03:42 16,7 C 16,1 C 15,6 C 87 % 1016,2 hPa 0,0 l/m 0 min 0 min 0 W/m 22,5 km/h (4 Bft) 95,74 %
24.08.2020 03:44 16,7 C 16,1 C 15,6 C 87 % 1016,2 hPa 0,0 l/m 0 min 0 min 0 W/m 19,3 km/h (3 Bft) 95,74 %
24.08.2020 03:46 16,7 C 15,6 C 15,6 C 87 % 1016,3 hPa 0,0 l/m 0 min 0 min 0 W/m 3,2 km/h (1 Bft) 94,55 %
24.08.2020 03:48 16,7 C 15,6 C 15,6 C 87 % 1016,2 hPa 0,0 l/m 0 min 0 min 0 W/m 3,2 km/h (1 Bft) 93,62 %
24.08.2020 03:50 16,7 C 15,6 C 15,6 C 86 % 1016,2 hPa 0,0 l/m 0 min 0 min 0 W/m 3,2 km/h (1 Bft) 97,87 %
24.08.2020 03:52 16,7 C 15,6 C 15,6 C 86 % 1016,2 hPa 0,0 l/m 0 min 0 min 0 W/m 0,0 km/h (0 Bft) 97,87 %
24.08.2020 03:54 16,7 C 15,6 C 15,6 C 86 % 1016,2 hPa 0,0 l/m 0 min 0 min 0 W/m 0,0 km/h (0 Bft) 97,87 %
24.08.2020 03:56 16,6 C 15,6 C 15,6 C 86 % 1016,2 hPa 0,0 l/m 0 min 0 min 0 W/m 9,7 km/h (2 Bft) 95,65 %
24.08.2020 03:58 16,6 C 15,6 C 15,6 C 86 % 1016,1 hPa 0,0 l/m 0 min 0 min 0 W/m 6,4 km/h (2 Bft) 97,87 %
24.08.2020 04:00 16,6 C 15,6 C 15,6 C 86 % 1016,1 hPa 0,0 l/m 0 min 0 min 0 W/m 12,9 km/h (3 Bft) 97,87 %
24.08.2020 04:02 16,6 C 15,6 C 15,6 C 85 % 1016,2 hPa 0,0 l/m 0 min 0 min 0 W/m 0,0 km/h (0 Bft) 100,00 %
24.08.2020 04:04 16,6 C 15,6 C 15,6 C 85 % 1016,1 hPa 0,0 l/m 0 min 0 min 0 W/m 0,0 km/h (0 Bft) 95,74 %
24.08.2020 04:06 16,6 C 15,6 C 15,6 C 85 % 1016,1 hPa 0,0 l/m 0 min 0 min 0 W/m 12,9 km/h (3 Bft) 95,74 %
24.08.2020 04:08 16,6 C 15,6 C 15,6 C 85 % 1016,1 hPa 0,0 l/m 0 min 0 min 0 W/m 3,2 km/h (1 Bft) 97,83 %
24.08.2020 04:10 16,6 C 15,6 C 15,6 C 85 % 1016,1 hPa 0,0 l/m 0 min 0 min 0 W/m 3,2 km/h (1 Bft) 97,87 %
24.08.2020 04:12 16,6 C 15,6 C 15,6 C 85 % 1016,1 hPa 0,0 l/m 0 min 0 min 0 W/m 3,2 km/h (1 Bft) 97,87 %
24.08.2020 04:14 16,6 C 15,6 C 15,6 C 85 % 1016,1 hPa 0,0 l/m 0 min 0 min 0 W/m 0,0 km/h (0 Bft) 97,87 %
24.08.2020 04:16 16,6 C 15,6 C 15,6 C 85 % 1016,1 hPa 0,0 l/m 0 min 0 min 0 W/m 6,4 km/h (2 Bft) 97,87 %
24.08.2020 04:18 16,5 C 15,6 C 15,6 C 84 % 1016,1 hPa 0,0 l/m 0 min 0 min 0 W/m 0,0 km/h (0 Bft) 97,87 %
24.08.2020 04:20 16,5 C 15,6 C 15,6 C 84 % 1016,1 hPa 0,0 l/m 0 min 0 min 0 W/m 9,7 km/h (2 Bft) 97,83 %
24.08.2020 04:22 16,5 C 15,6 C 15,6 C 84 % 1016,1 hPa 0,0 l/m 0 min 0 min 0 W/m 12,9 km/h (3 Bft) 95,74 %
24.08.2020 04:24 16,5 C 15,6 C 15,6 C 84 % 1016,0 hPa 0,0 l/m 0 min 0 min 0 W/m 12,9 km/h (3 Bft) 97,87 %
24.08.2020 04:26 16,4 C 15,6 C 15,6 C 84 % 1016,0 hPa 0,0 l/m 0 min 0 min 0 W/m 25,7 km/h (4 Bft) 97,87 %
24.08.2020 04:28 16,4 C 15,6 C 15,6 C 84 % 1016,0 hPa 0,0 l/m 0 min 0 min 0 W/m 29,0 km/h (5 Bft) 97,87 %
24.08.2020 04:30 16,4 C 15,6 C 15,6 C 84 % 1016,0 hPa 0,0 l/m 0 min 0 min 0 W/m 19,3 km/h (3 Bft) 97,87 %
24.08.2020 04:32 16,4 C 15,6 C 15,6 C 84 % 1015,9 hPa 0,0 l/m 0 min 0 min 0 W/m 16,1 km/h (3 Bft) 97,22 %
24.08.2020 04:34 16,4 C 15,6 C 15,0 C 84 % 1015,9 hPa 0,0 l/m 0 min 0 min 0 W/m 16,1 km/h (3 Bft) 97,87 %
24.08.2020 04:36 16,4 C 15,6 C 15,0 C 84 % 1016,0 hPa 0,0 l/m 0 min 0 min 0 W/m 25,7 km/h (4 Bft) 97,83 %
24.08.2020 04:38 16,4 C 15,6 C 15,0 C 84 % 1015,9 hPa 0,0 l/m 0 min 0 min 0 W/m 12,9 km/h (3 Bft) 95,74 %
24.08.2020 04:40 16,4 C 15,6 C 15,0 C 84 % 1015,8 hPa 0,0 l/m 0 min 0 min 0 W/m 6,4 km/h (2 Bft) 97,87 %
24.08.2020 04:42 16,3 C 15,6 C 15,0 C 84 % 1015,9 hPa 0,0 l/m 0 min 0 min 0 W/m 19,3 km/h (3 Bft) 97,87 %
24.08.2020 04:44 16,3 C 15,0 C 15,0 C 84 % 1015,9 hPa 0,0 l/m 0 min 0 min 0 W/m 12,9 km/h (3 Bft) 97,87 %
24.08.2020 04:46 16,3 C 15,0 C 15,0 C 84 % 1015,8 hPa 0,0 l/m 0 min 0 min 0 W/m 19,3 km/h (3 Bft) 95,65 %
24.08.2020 04:48 16,3 C 15,0 C 15,0 C 84 % 1015,8 hPa 0,0 l/m 0 min 0 min 0 W/m 16,1 km/h (3 Bft) 97,87 %
24.08.2020 04:50 16,3 C 15,0 C 15,0 C 84 % 1015,8 hPa 0,0 l/m 0 min 0 min 0 W/m 0,0 km/h (0 Bft) 97,87 %
24.08.2020 04:52 16,2 C 15,0 C 15,0 C 84 % 1015,8 hPa 0,0 l/m 0 min 0 min 0 W/m 9,7 km/h (2 Bft) 97,87 %
24.08.2020 04:54 16,2 C 15,0 C 15,0 C 84 % 1015,8 hPa 0,0 l/m 0 min 0 min 0 W/m 9,7 km/h (2 Bft) 97,87 %
24.08.2020 04:56 16,2 C 15,0 C 15,0 C 84 % 1015,7 hPa 0,0 l/m 0 min 0 min 0 W/m 3,2 km/h (1 Bft) 95,74 %
24.08.2020 04:58 16,1 C 15,0 C 15,0 C 84 % 1015,8 hPa 0,0 l/m 0 min 0 min 0 W/m 19,3 km/h (3 Bft) 97,83 %
24.08.2020 05:00 16,1 C 15,0 C 15,0 C 84 % 1015,7 hPa 0,0 l/m 0 min 0 min 0 W/m 16,1 km/h (3 Bft) 97,87 %
24.08.2020 05:02 16,1 C 15,0 C 15,0 C 84 % 1015,7 hPa 0,0 l/m 0 min 0 min 0 W/m 9,7 km/h (2 Bft) 97,87 %
24.08.2020 05:04 16,1 C 15,0 C 15,0 C 84 % 1015,7 hPa 0,0 l/m 0 min 0 min 0 W/m 19,3 km/h (3 Bft) 97,87 %
24.08.2020 05:06 16,1 C 14,4 C 15,0 C 84 % 1015,7 hPa 0,0 l/m 0 min 0 min 0 W/m 0,0 km/h (0 Bft) 97,87 %
24.08.2020 05:08 16,0 C 14,4 C 14,4 C 84 % 1015,7 hPa 0,0 l/m 0 min 0 min 0 W/m 3,2 km/h (1 Bft) 98,28 %
24.08.2020 05:10 16,0 C 14,4 C 14,4 C 84 % 1015,8 hPa 0,0 l/m 0 min 0 min 0 W/m 12,9 km/h (3 Bft) 100,00 %
24.08.2020 05:12 15,9 C 14,4 C 14,4 C 84 % 1015,8 hPa 0,0 l/m 0 min 0 min 0 W/m 16,1 km/h (3 Bft) 100,00 %
24.08.2020 05:14 15,9 C 14,4 C 14,4 C 84 % 1015,7 hPa 0,0 l/m 0 min 0 min 0 W/m 0,0 km/h (0 Bft) 100,00 %
24.08.2020 05:16 15,9 C 14,4 C 14,4 C 84 % 1015,8 hPa 0,0 l/m 0 min 0 min 0 W/m 0,0 km/h (0 Bft) 100,00 %
24.08.2020 05:18 15,8 C 14,4 C 14,4 C 84 % 1015,7 hPa 0,0 l/m 0 min 0 min 0 W/m 3,2 km/h (1 Bft) 100,00 %
24.08.2020 05:20 15,8 C 14,4 C 14,4 C 84 % 1015,7 hPa 0,0 l/m 0 min 0 min 0 W/m 0,0 km/h (0 Bft) 97,87 %
24.08.2020 05:22 15,8 C 14,4 C 14,4 C 84 % 1015,8 hPa 0,0 l/m 0 min 0 min 0 W/m 0,0 km/h (0 Bft) 100,00 %
24.08.2020 05:24 15,8 C 14,4 C 14,4 C 84 % 1015,7 hPa 0,0 l/m 0 min 0 min 0 W/m 9,7 km/h (2 Bft) 100,00 %
24.08.2020 05:26 15,7 C 14,4 C 14,4 C 85 % 1015,7 hPa 0,0 l/m 0 min 0 min 0 W/m 22,5 km/h (4 Bft) 100,00 %
24.08.2020 05:28 15,7 C 14,4 C 14,4 C 85 % 1015,7 hPa 0,0 l/m 0 min 0 min 0 W/m 12,9 km/h (3 Bft) 100,00 %
24.08.2020 05:30 15,7 C 14,4 C 14,4 C 85 % 1015,7 hPa 0,0 l/m 0 min 0 min 0 W/m 3,2 km/h (1 Bft) 100,00 %
24.08.2020 05:32 15,7 C 14,4 C 14,4 C 85 % 1015,7 hPa 0,0 l/m 0 min 0 min 0 W/m 12,9 km/h (3 Bft) 100,00 %
24.08.2020 05:34 15,6 C 14,4 C 14,4 C 85 % 1015,7 hPa 0,0 l/m 0 min 0 min 0 W/m 9,7 km/h (2 Bft) 100,00 %
24.08.2020 05:36 15,6 C 14,4 C 14,4 C 85 % 1015,7 hPa 0,0 l/m 0 min 0 min 0 W/m 19,3 km/h (3 Bft) 100,00 %
24.08.2020 05:38 15,6 C 14,4 C 14,4 C 85 % 1015,7 hPa 0,0 l/m 0 min 0 min 0 W/m 19,3 km/h (3 Bft) 100,00 %
24.08.2020 05:40 15,6 C 14,4 C 14,4 C 85 % 1015,6 hPa 0,0 l/m 0 min 0 min 0 W/m 3,2 km/h (1 Bft) 100,00 %
24.08.2020 05:42 15,6 C 14,4 C 14,4 C 85 % 1015,6 hPa 0,0 l/m 0 min 0 min 0 W/m 0,0 km/h (0 Bft) 100,00 %
24.08.2020 05:44 15,5 C 14,4 C 14,4 C 85 % 1015,6 hPa 0,0 l/m 0 min 0 min 0 W/m 3,2 km/h (1 Bft) 100,00 %
24.08.2020 05:46 15,5 C 14,4 C 14,4 C 85 % 1015,5 hPa 0,0 l/m 0 min 0 min 0 W/m 3,2 km/h (1 Bft) 100,00 %
24.08.2020 05:48 15,4 C 14,4 C 14,4 C 86 % 1015,5 hPa 0,0 l/m 0 min 0 min 0 W/m 0,0 km/h (0 Bft) 100,00 %
24.08.2020 05:50 15,4 C 14,4 C 14,4 C 86 % 1015,6 hPa 0,0 l/m 0 min 0 min 0 W/m 0,0 km/h (0 Bft) 100,00 %
24.08.2020 05:52 15,4 C 14,4 C 14,4 C 86 % 1015,6 hPa 0,0 l/m 0 min 0 min 0 W/m 19,3 km/h (3 Bft) 100,00 %
24.08.2020 05:54 15,4 C 14,4 C 14,4 C 86 % 1015,6 hPa 0,0 l/m 0 min 0 min 0 W/m 12,9 km/h (3 Bft) 100,00 %
24.08.2020 05:56 15,4 C 14,4 C 14,4 C 86 % 1015,6 hPa 0,0 l/m 0 min 0 min 0 W/m 6,4 km/h (2 Bft) 100,00 %
24.08.2020 05:58 15,3 C 14,4 C 14,4 C 86 % 1015,6 hPa 0,0 l/m 0 min 0 min 0 W/m 0,0 km/h (0 Bft) 100,00 %
24.08.2020 06:00 15,3 C 14,4 C 14,4 C 86 % 1015,5 hPa 0,0 l/m 0 min 0 min 0 W/m 0,0 km/h (0 Bft) 100,00 %
24.08.2020 06:02 15,3 C 14,4 C 14,4 C 86 % 1015,6 hPa 0,0 l/m 0 min 0 min 0 W/m 0,0 km/h (0 Bft) 100,00 %
24.08.2020 06:04 15,3 C 14,4 C 14,4 C 86 % 1015,5 hPa 0,0 l/m 0 min 0 min 0 W/m 0,0 km/h (0 Bft) 100,00 %
24.08.2020 06:08 15,3 C 14,4 C 14,4 C 86 % 1015,6 hPa 0,0 l/m 0 min 0 min 0 W/m 16,1 km/h (3 Bft) 100,00 %
24.08.2020 06:10 15,3 C 14,4 C 14,4 C 86 % 1015,5 hPa 0,0 l/m 0 min 0 min 0 W/m 0,0 km/h (0 Bft) 97,87 %
24.08.2020 06:12 15,3 C 14,4 C 13,9 C 86 % 1015,5 hPa 0,0 l/m 0 min 0 min 0 W/m 0,0 km/h (0 Bft) 97,87 %
24.08.2020 06:14 15,2 C 14,4 C 13,9 C 86 % 1015,5 hPa 0,0 l/m 0 min 0 min 0 W/m 19,3 km/h (3 Bft) 100,00 %
24.08.2020 06:16 15,2 C 14,4 C 13,9 C 86 % 1015,6 hPa 0,0 l/m 0 min 0 min 0 W/m 0,0 km/h (0 Bft) 97,87 %
24.08.2020 06:18 15,2 C 14,4 C 13,9 C 86 % 1015,6 hPa 0,0 l/m 0 min 0 min 0 W/m 25,7 km/h (4 Bft) 97,87 %
24.08.2020 06:20 15,2 C 14,4 C 13,9 C 86 % 1015,5 hPa 0,0 l/m 0 min 0 min 0 W/m 0,0 km/h (0 Bft) 97,83 %
24.08.2020 06:22 15,2 C 14,4 C 13,9 C 86 % 1015,7 hPa 0,0 l/m 0 min 0 min 0 W/m 6,4 km/h (2 Bft) 97,87 %
24.08.2020 06:24 15,2 C 14,4 C 13,9 C 86 % 1015,6 hPa 0,0 l/m 0 min 0 min 0 W/m 16,1 km/h (3 Bft) 100,00 %
24.08.2020 06:26 15,2 C 14,4 C 13,9 C 86 % 1015,6 hPa 0,0 l/m 0 min 0 min 0 W/m 12,9 km/h (3 Bft) 95,74 %
24.08.2020 06:28 15,2 C 14,4 C 13,9 C 86 % 1015,5 hPa 0,0 l/m 0 min 0 min 0 W/m 16,1 km/h (3 Bft) 95,74 %
24.08.2020 06:30 15,2 C 14,4 C 13,9 C 87 % 1015,5 hPa 0,0 l/m 0 min 0 min 0 W/m 12,9 km/h (3 Bft) 93,48 %
24.08.2020 06:32 15,2 C 14,4 C 13,9 C 87 % 1015,5 hPa 0,0 l/m 0 min 0 min 0 W/m 0,0 km/h (0 Bft) 91,49 %
24.08.2020 06:34 15,2 C 14,4 C 13,9 C 87 % 1015,5 hPa 0,0 l/m 0 min 0 min 0 W/m 3,2 km/h (1 Bft) 95,74 %
24.08.2020 06:36 15,2 C 14,4 C 13,9 C 87 % 1015,6 hPa 0,0 l/m 0 min 0 min 0 W/m 0,0 km/h (0 Bft) 95,74 %
24.08.2020 06:38 15,2 C 14,4 C 13,9 C 87 % 1015,7 hPa 0,0 l/m 0 min 0 min 0 W/m 6,4 km/h (2 Bft) 95,74 %
24.08.2020 06:40 15,1 C 14,4 C 14,4 C 87 % 1015,6 hPa 0,0 l/m 0 min 0 min 0 W/m 3,2 km/h (1 Bft) 95,74 %
24.08.2020 06:42 15,2 C 14,4 C 14,4 C 87 % 1015,6 hPa 0,0 l/m 0 min 0 min 0 W/m 3,2 km/h (1 Bft) 95,65 %
24.08.2020 06:44 15,2 C 14,4 C 13,9 C 87 % 1015,7 hPa 0,0 l/m 0 min 0 min 3 W/m 3,2 km/h (1 Bft) 95,74 %
24.08.2020 06:46 15,1 C 14,4 C 14,4 C 87 % 1015,6 hPa 0,0 l/m 0 min 0 min 6 W/m 22,5 km/h (4 Bft) 95,74 %
24.08.2020 06:48 15,1 C 14,4 C 14,4 C 87 % 1015,6 hPa 0,0 l/m 0 min 0 min 8 W/m 0,0 km/h (0 Bft) 96,30 %
24.08.2020 06:50 15,2 C 14,4 C 14,4 C 87 % 1015,6 hPa 0,0 l/m 0 min 0 min 9 W/m 19,3 km/h (3 Bft) 95,74 %
24.08.2020 06:52 15,2 C 14,4 C 14,4 C 87 % 1015,6 hPa 0,0 l/m 0 min 0 min 10 W/m 16,1 km/h (3 Bft) 93,48 %
24.08.2020 06:54 15,2 C 14,4 C 14,4 C 87 % 1015,6 hPa 0,0 l/m 0 min 0 min 11 W/m 19,3 km/h (3 Bft) 95,74 %
24.08.2020 06:56 15,2 C 14,4 C 14,4 C 87 % 1015,6 hPa 0,0 l/m 0 min 0 min 12 W/m 3,2 km/h (1 Bft) 97,87 %
24.08.2020 06:58 15,2 C 14,4 C 14,4 C 87 % 1015,6 hPa 0,0 l/m 0 min 0 min 12 W/m 0,0 km/h (0 Bft) 93,62 %
24.08.2020 07:00 15,2 C 14,4 C 14,4 C 87 % 1015,6 hPa 0,0 l/m 0 min 0 min 12 W/m 0,0 km/h (0 Bft) 95,74 %
24.08.2020 07:02 15,2 C 14,4 C 14,4 C 87 % 1015,6 hPa 0,0 l/m 0 min 0 min 12 W/m 19,3 km/h (3 Bft) 95,74 %
24.08.2020 07:04 15,2 C 14,4 C 14,4 C 87 % 1015,6 hPa 0,0 l/m 0 min 0 min 13 W/m 19,3 km/h (3 Bft) 93,48 %
24.08.2020 07:06 15,2 C 14,4 C 14,4 C 87 % 1015,6 hPa 0,0 l/m 0 min 0 min 12 W/m 3,2 km/h (1 Bft) 95,74 %
24.08.2020 07:08 15,2 C 14,4 C 14,4 C 87 % 1015,6 hPa 0,0 l/m 0 min 0 min 12 W/m 0,0 km/h (0 Bft) 95,74 %
24.08.2020 07:10 15,2 C 14,4 C 14,4 C 87 % 1015,6 hPa 0,0 l/m 0 min 0 min 17 W/m 16,1 km/h (3 Bft) 93,62 %
24.08.2020 07:12 15,3 C 14,4 C 14,4 C 87 % 1015,6 hPa 0,0 l/m 0 min 0 min 21 W/m 6,4 km/h (2 Bft) 89,36 %
24.08.2020 07:14 15,3 C 15,0 C 14,4 C 87 % 1015,6 hPa 0,0 l/m 0 min 0 min 22 W/m 3,2 km/h (1 Bft) 91,49 %
24.08.2020 07:16 15,3 C 15,0 C 14,4 C 87 % 1015,6 hPa 0,0 l/m 0 min 0 min 29 W/m 3,2 km/h (1 Bft) 95,65 %
24.08.2020 07:18 15,3 C 15,0 C 14,4 C 87 % 1015,6 hPa 0,0 l/m 0 min 0 min 33 W/m 3,2 km/h (1 Bft) 95,74 %
24.08.2020 07:20 15,3 C 15,0 C 14,4 C 87 % 1015,6 hPa 0,0 l/m 0 min 0 min 40 W/m 0,0 km/h (0 Bft) 95,74 %
24.08.2020 07:22 15,3 C 15,0 C 14,4 C 87 % 1015,6 hPa 0,0 l/m 0 min 0 min 47 W/m 3,2 km/h (1 Bft) 95,74 %
24.08.2020 07:24 15,4 C 15,0 C 14,4 C 87 % 1015,5 hPa 0,0 l/m 0 min 0 min 53 W/m 16,1 km/h (3 Bft) 95,74 %
24.08.2020 07:26 15,4 C 15,0 C 15,0 C 87 % 1015,6 hPa 0,0 l/m 0 min 0 min 53 W/m 3,2 km/h (1 Bft) 97,87 %
24.08.2020 07:28 15,4 C 15,0 C 15,0 C 87 % 1015,6 hPa 0,0 l/m 0 min 0 min 53 W/m 3,2 km/h (1 Bft) 95,65 %
24.08.2020 07:30 15,4 C 15,0 C 15,0 C 87 % 1015,6 hPa 0,0 l/m 0 min 0 min 49 W/m 3,2 km/h (1 Bft) 95,74 %
24.08.2020 07:32 15,5 C 15,0 C 15,0 C 87 % 1015,6 hPa 0,0 l/m 0 min 0 min 35 W/m 0,0 km/h (0 Bft) 95,83 %
24.08.2020 07:34 15,5 C 15,0 C 15,0 C 87 % 1015,6 hPa 0,0 l/m 0 min 0 min 28 W/m 12,9 km/h (3 Bft) 95,74 %
24.08.2020 07:36 15,5 C 15,0 C 15,0 C 87 % 1015,6 hPa 0,0 l/m 0 min 0 min 29 W/m 12,9 km/h (3 Bft) 100,00 %
24.08.2020 07:38 15,6 C 15,0 C 15,0 C 87 % 1015,6 hPa 0,0 l/m 0 min 0 min 30 W/m 6,4 km/h (2 Bft) 97,87 %
24.08.2020 07:40 15,6 C 15,0 C 15,0 C 87 % 1015,7 hPa 0,0 l/m 0 min 0 min 28 W/m 0,0 km/h (0 Bft) 95,65 %
24.08.2020 07:42 15,6 C 15,0 C 15,0 C 87 % 1015,6 hPa 0,0 l/m 0 min 0 min 24 W/m 12,9 km/h (3 Bft) 97,87 %
24.08.2020 07:44 15,6 C 15,0 C 15,0 C 87 % 1015,6 hPa 0,0 l/m 0 min 0 min 23 W/m 19,3 km/h (3 Bft) 95,74 %
24.08.2020 07:46 15,6 C 15,0 C 15,0 C 87 % 1015,6 hPa 0,0 l/m 0 min 0 min 23 W/m 9,7 km/h (2 Bft) 95,74 %
24.08.2020 07:48 15,6 C 15,0 C 15,0 C 87 % 1015,6 hPa 0,0 l/m 0 min 0 min 24 W/m 22,5 km/h (4 Bft) 97,87 %
24.08.2020 07:50 15,6 C 15,0 C 15,0 C 87 % 1015,6 hPa 0,0 l/m 0 min 0 min 28 W/m 16,1 km/h (3 Bft) 97,83 %
24.08.2020 07:52 15,7 C 15,0 C 15,0 C 87 % 1015,6 hPa 0,0 l/m 0 min 0 min 23 W/m 12,9 km/h (3 Bft) 97,87 %
24.08.2020 07:54 15,7 C 15,0 C 15,0 C 87 % 1015,6 hPa 0,0 l/m 0 min 0 min 21 W/m 19,3 km/h (3 Bft) 95,74 %
24.08.2020 07:56 15,7 C 15,0 C 15,0 C 87 % 1015,7 hPa 0,0 l/m 0 min 0 min 17 W/m 16,1 km/h (3 Bft) 100,00 %
24.08.2020 07:58 15,7 C 15,0 C 14,4 C 87 % 1015,7 hPa 0,0 l/m 0 min 0 min 13 W/m 12,9 km/h (3 Bft) 100,00 %
24.08.2020 08:00 15,7 C 15,0 C 14,4 C 87 % 1015,8 hPa 0,0 l/m 0 min 0 min 17 W/m 16,1 km/h (3 Bft) 97,87 %
24.08.2020 08:02 15,7 C 15,0 C 14,4 C 87 % 1015,6 hPa 0,0 l/m 0 min 0 min 19 W/m 0,0 km/h (0 Bft) 100,00 %
24.08.2020 08:04 15,7 C 15,0 C 14,4 C 87 % 1015,6 hPa 0,0 l/m 0 min 0 min 21 W/m 3,2 km/h (1 Bft) 100,00 %
24.08.2020 08:06 15,7 C 15,0 C 14,4 C 87 % 1015,7 hPa 0,0 l/m 0 min 0 min 25 W/m 0,0 km/h (0 Bft) 100,00 %
24.08.2020 08:08 15,7 C 15,0 C 14,4 C 87 % 1015,7 hPa 0,0 l/m 0 min 0 min 24 W/m 6,4 km/h (2 Bft) 97,83 %
24.08.2020 08:10 15,7 C 15,0 C 14,4 C 87 % 1015,7 hPa 0,0 l/m 0 min 0 min 19 W/m 6,4 km/h (2 Bft) 100,00 %
24.08.2020 08:12 15,7 C 15,0 C 14,4 C 87 % 1015,7 hPa 0,0 l/m 0 min 0 min 26 W/m 16,1 km/h (3 Bft) 100,00 %
24.08.2020 08:14 15,7 C 15,0 C 14,4 C 88 % 1015,6 hPa 0,0 l/m 0 min 0 min 39 W/m 12,9 km/h (3 Bft) 100,00 %
24.08.2020 08:16 15,7 C 15,0 C 15,0 C 88 % 1015,7 hPa 0,0 l/m 0 min 0 min 51 W/m 12,9 km/h (3 Bft) 100,00 %
24.08.2020 08:18 15,7 C 15,0 C 15,0 C 88 % 1015,8 hPa 0,0 l/m 0 min 0 min 59 W/m 19,3 km/h (3 Bft) 100,00 %
24.08.2020 08:20 15,7 C 15,0 C 15,0 C 88 % 1015,6 hPa 0,0 l/m 0 min 0 min 64 W/m 3,2 km/h (1 Bft) 97,87 %
24.08.2020 08:22 15,7 C 15,0 C 15,0 C 88 % 1015,7 hPa 0,0 l/m 0 min 0 min 68 W/m 0,0 km/h (0 Bft) 100,00 %
24.08.2020 08:24 15,7 C 15,6 C 15,0 C 88 % 1015,7 hPa 0,0 l/m 0 min 0 min 80 W/m 16,1 km/h (3 Bft) 100,00 %
24.08.2020 08:26 15,7 C 15,6 C 15,0 C 88 % 1015,7 hPa 0,0 l/m 0 min 0 min 89 W/m 9,7 km/h (2 Bft) 97,87 %
24.08.2020 08:28 15,7 C 15,6 C 15,0 C 88 % 1015,7 hPa 0,0 l/m 0 min 0 min 94 W/m 0,0 km/h (0 Bft) 100,00 %
24.08.2020 08:30 15,7 C 15,6 C 15,0 C 88 % 1015,7 hPa 0,0 l/m 0 min 0 min 104 W/m 0,0 km/h (0 Bft) 100,00 %
24.08.2020 08:32 15,8 C 15,6 C 15,0 C 88 % 1015,7 hPa 0,0 l/m 0 min 0 min 119 W/m 0,0 km/h (0 Bft) 100,00 %
24.08.2020 08:34 15,8 C 16,1 C 15,6 C 88 % 1015,7 hPa 0,0 l/m 0 min 0 min 126 W/m 0,0 km/h (0 Bft) 97,87 %
24.08.2020 08:36 15,8 C 16,1 C 15,6 C 88 % 1015,7 hPa 0,0 l/m 0 min 0 min 119 W/m 0,0 km/h (0 Bft) 100,00 %
24.08.2020 08:38 15,8 C 16,1 C 15,6 C 88 % 1015,7 hPa 0,0 l/m 0 min 0 min 109 W/m 12,9 km/h (3 Bft) 100,00 %
24.08.2020 08:40 15,8 C 15,6 C 15,6 C 88 % 1015,8 hPa 0,0 l/m 0 min 0 min 105 W/m 16,1 km/h (3 Bft) 100,00 %
24.08.2020 08:42 15,9 C 16,1 C 15,6 C 88 % 1015,7 hPa 0,0 l/m 0 min 0 min 116 W/m 3,2 km/h (1 Bft) 100,00 %
24.08.2020 08:44 15,9 C 16,1 C 15,6 C 88 % 1015,8 hPa 0,0 l/m 0 min 0 min 127 W/m 3,2 km/h (1 Bft) 100,00 %
24.08.2020 08:46 15,9 C 16,1 C 15,6 C 88 % 1015,7 hPa 0,0 l/m 0 min 0 min 126 W/m 0,0 km/h (0 Bft) 100,00 %
24.08.2020 08:48 15,9 C 16,1 C 15,6 C 88 % 1015,7 hPa 0,0 l/m 0 min 0 min 132 W/m 0,0 km/h (0 Bft) 100,00 %
24.08.2020 08:50 16,0 C 16,1 C 15,6 C 88 % 1015,8 hPa 0,0 l/m 0 min 0 min 144 W/m 25,7 km/h (4 Bft) 100,00 %
24.08.2020 08:52 16,0 C 16,7 C 15,6 C 88 % 1015,7 hPa 0,0 l/m 0 min 0 min 163 W/m 9,7 km/h (2 Bft) 100,00 %
24.08.2020 08:54 16,1 C 16,7 C 15,6 C 88 % 1015,8 hPa 0,0 l/m 2 min 0 min 225 W/m 19,3 km/h (3 Bft) 100,00 %
24.08.2020 08:56 16,1 C 17,2 C 16,1 C 88 % 1015,7 hPa 0,0 l/m 2 min 0 min 235 W/m 19,3 km/h (3 Bft) 100,00 %
24.08.2020 08:58 16,2 C 17,8 C 16,1 C 87 % 1015,7 hPa 0,0 l/m 2 min 0 min 202 W/m 16,1 km/h (3 Bft) 100,00 %
24.08.2020 09:00 16,2 C 17,8 C 16,1 C 87 % 1015,7 hPa 0,0 l/m 2 min 0 min 179 W/m 6,4 km/h (2 Bft) 100,00 %
24.08.2020 09:02 16,2 C 17,8 C 16,1 C 87 % 1015,7 hPa 0,0 l/m 0 min 0 min 173 W/m 9,7 km/h (2 Bft) 100,00 %
24.08.2020 09:04 16,3 C 17,8 C 16,1 C 87 % 1015,7 hPa 0,0 l/m 2 min 0 min 196 W/m 9,7 km/h (2 Bft) 100,00 %
24.08.2020 09:06 16,3 C 17,8 C 16,7 C 87 % 1015,7 hPa 0,0 l/m 2 min 0 min 215 W/m 0,0 km/h (0 Bft) 100,00 %
24.08.2020 09:08 16,4 C 17,8 C 16,7 C 87 % 1015,7 hPa 0,0 l/m 0 min 0 min 184 W/m 12,9 km/h (3 Bft) 100,00 %
24.08.2020 09:10 16,4 C 17,8 C 16,7 C 87 % 1015,8 hPa 0,0 l/m 0 min 0 min 183 W/m 19,3 km/h (3 Bft) 97,14 %
24.08.2020 09:12 16,5 C 17,8 C 16,7 C 87 % 1015,7 hPa 0,0 l/m 0 min 0 min 181 W/m 16,1 km/h (3 Bft) 100,00 %
24.08.2020 09:14 16,6 C 17,8 C 16,7 C 86 % 1015,6 hPa 0,0 l/m 0 min 0 min 179 W/m 16,1 km/h (3 Bft) 98,15 %
24.08.2020 09:16 16,7 C 17,2 C 16,7 C 86 % 1015,7 hPa 0,0 l/m 0 min 0 min 190 W/m 12,9 km/h (3 Bft) 97,92 %
24.08.2020 09:18 16,7 C 17,2 C 16,7 C 86 % 1015,7 hPa 0,0 l/m 0 min 0 min 184 W/m 6,4 km/h (2 Bft) 100,00 %
24.08.2020 09:20 16,7 C 17,8 C 16,7 C 86 % 1015,7 hPa 0,0 l/m 0 min 0 min 192 W/m 12,9 km/h (3 Bft) 100,00 %
24.08.2020 09:22 16,8 C 17,8 C 16,7 C 86 % 1015,7 hPa 0,0 l/m 2 min 0 min 206 W/m 12,9 km/h (3 Bft) 95,74 %
24.08.2020 09:24 16,8 C 17,8 C 16,7 C 85 % 1015,8 hPa 0,0 l/m 2 min 0 min 226 W/m 19,3 km/h (3 Bft) 97,87 %
24.08.2020 09:26 16,8 C 17,8 C 16,7 C 85 % 1015,8 hPa 0,0 l/m 2 min 0 min 229 W/m 19,3 km/h (3 Bft) 97,14 %
24.08.2020 09:28 16,9 C 17,8 C 16,7 C 85 % 1015,8 hPa 0,0 l/m 0 min 0 min 206 W/m 12,9 km/h (3 Bft) 98,11 %
24.08.2020 09:30 16,9 C 17,8 C 16,7 C 85 % 1015,8 hPa 0,0 l/m 0 min 0 min 179 W/m 9,7 km/h (2 Bft) 100,00 %
24.08.2020 09:32 16,9 C 17,8 C 16,7 C 84 % 1015,8 hPa 0,0 l/m 0 min 0 min 186 W/m 12,9 km/h (3 Bft) 97,96 %
24.08.2020 09:34 17,0 C 17,8 C 16,7 C 84 % 1015,8 hPa 0,0 l/m 2 min 0 min 222 W/m 12,9 km/h (3 Bft) 97,92 %
24.08.2020 09:36 17,1 C 18,3 C 17,8 C 84 % 1015,7 hPa 0,0 l/m 2 min 0 min 266 W/m 3,2 km/h (1 Bft) 97,87 %
24.08.2020 09:38 17,1 C 18,3 C 17,8 C 84 % 1015,8 hPa 0,0 l/m 2 min 0 min 290 W/m 16,1 km/h (3 Bft) 97,62 %
24.08.2020 09:40 17,1 C 18,9 C 17,8 C 84 % 1015,8 hPa 0,0 l/m 2 min 0 min 275 W/m 19,3 km/h (3 Bft) 95,92 %
24.08.2020 09:42 17,2 C 18,3 C 17,8 C 83 % 1015,9 hPa 0,0 l/m 2 min 0 min 278 W/m 22,5 km/h (4 Bft) 97,96 %
24.08.2020 09:44 17,2 C 18,3 C 17,8 C 83 % 1015,8 hPa 0,0 l/m 2 min 0 min 260 W/m 16,1 km/h (3 Bft) 97,87 %
24.08.2020 09:46 17,2 C 18,3 C 17,8 C 83 % 1015,9 hPa 0,0 l/m 2 min 0 min 268 W/m 6,4 km/h (2 Bft) 91,49 %
24.08.2020 09:48 17,3 C 18,3 C 17,2 C 83 % 1015,9 hPa 0,0 l/m 0 min 0 min 229 W/m 25,7 km/h (4 Bft) 91,43 %
24.08.2020 09:50 17,3 C 18,3 C 17,8 C 83 % 1015,8 hPa 0,0 l/m 2 min 0 min 254 W/m 9,7 km/h (2 Bft) 92,59 %
24.08.2020 09:52 17,3 C 18,9 C 18,3 C 83 % 1015,9 hPa 0,0 l/m 2 min 0 min 293 W/m 12,9 km/h (3 Bft) 93,75 %
24.08.2020 09:54 17,4 C 18,9 C 18,3 C 83 % 1015,9 hPa 0,0 l/m 2 min 0 min 288 W/m 16,1 km/h (3 Bft) 93,75 %
24.08.2020 09:56 17,4 C 18,9 C 17,8 C 83 % 1016,0 hPa 0,0 l/m 0 min 0 min 237 W/m 12,9 km/h (3 Bft) 91,84 %
24.08.2020 09:58 17,4 C 18,3 C 17,8 C 83 % 1015,9 hPa 0,0 l/m 2 min 0 min 256 W/m 16,1 km/h (3 Bft) 93,62 %
24.08.2020 10:00 17,4 C 18,3 C 17,8 C 82 % 1015,9 hPa 0,0 l/m 0 min 0 min 245 W/m 16,1 km/h (3 Bft) 91,49 %
24.08.2020 10:02 17,5 C 18,9 C 17,8 C 82 % 1015,9 hPa 0,0 l/m 2 min 0 min 316 W/m 12,9 km/h (3 Bft) 91,43 %
24.08.2020 10:04 17,5 C 18,3 C 17,8 C 82 % 1015,9 hPa 0,0 l/m 2 min 0 min 278 W/m 16,1 km/h (3 Bft) 92,45 %
24.08.2020 10:06 17,5 C 18,3 C 17,8 C 82 % 1015,9 hPa 0,0 l/m 0 min 0 min 229 W/m 0,0 km/h (0 Bft) 93,75 %
24.08.2020 10:08 17,5 C 18,3 C 17,8 C 82 % 1015,9 hPa 0,0 l/m 0 min 0 min 232 W/m 0,0 km/h (0 Bft) 89,58 %
24.08.2020 10:10 17,6 C 18,3 C 17,8 C 82 % 1016,0 hPa 0,0 l/m 0 min 0 min 232 W/m 0,0 km/h (0 Bft) 93,75 %
24.08.2020 10:12 17,6 C 18,3 C 17,8 C 82 % 1016,0 hPa 0,0 l/m 0 min 0 min 202 W/m 3,2 km/h (1 Bft) 91,84 %
24.08.2020 10:14 17,6 C 18,3 C 17,2 C 82 % 1016,1 hPa 0,0 l/m 0 min 0 min 145 W/m 9,7 km/h (2 Bft) 93,48 %
24.08.2020 10:16 17,6 C 17,8 C 16,7 C 82 % 1016,1 hPa 0,0 l/m 0 min 0 min 139 W/m 16,1 km/h (3 Bft) 94,44 %
24.08.2020 10:18 17,6 C 17,2 C 16,7 C 82 % 1016,2 hPa 0,0 l/m 0 min 0 min 128 W/m 16,1 km/h (3 Bft) 90,57 %
24.08.2020 10:20 17,6 C 17,2 C 16,7 C 82 % 1016,2 hPa 0,0 l/m 0 min 0 min 146 W/m 16,1 km/h (3 Bft) 91,84 %
24.08.2020 10:22 17,5 C 17,2 C 16,7 C 82 % 1016,2 hPa 0,0 l/m 0 min 0 min 175 W/m 19,3 km/h (3 Bft) 93,75 %
24.08.2020 10:24 17,5 C 17,8 C 16,7 C 82 % 1016,1 hPa 0,0 l/m 0 min 0 min 194 W/m 16,1 km/h (3 Bft) 93,75 %
24.08.2020 10:26 17,5 C 18,3 C 17,2 C 82 % 1016,1 hPa 0,0 l/m 0 min 0 min 213 W/m 6,4 km/h (2 Bft) 95,74 %
24.08.2020 10:28 17,5 C 18,3 C 17,2 C 83 % 1016,2 hPa 0,0 l/m 0 min 0 min 223 W/m 9,7 km/h (2 Bft) 93,62 %
24.08.2020 10:30 17,6 C 18,3 C 17,2 C 82 % 1016,2 hPa 0,0 l/m 0 min 0 min 202 W/m 6,4 km/h (2 Bft) 93,62 %
24.08.2020 10:32 17,6 C 17,8 C 17,2 C 82 % 1016,2 hPa 0,0 l/m 0 min 0 min 225 W/m 19,3 km/h (3 Bft) 90,48 %
24.08.2020 10:34 17,6 C 18,9 C 17,8 C 82 % 1016,2 hPa 0,0 l/m 2 min 0 min 315 W/m 9,7 km/h (2 Bft) 95,83 %
24.08.2020 10:36 17,6 C 19,4 C 17,8 C 82 % 1016,2 hPa 0,0 l/m 2 min 0 min 420 W/m 16,1 km/h (3 Bft) 95,65 %
24.08.2020 10:38 17,7 C 20,0 C 18,3 C 82 % 1016,1 hPa 0,0 l/m 2 min 0 min 344 W/m 3,2 km/h (1 Bft) 97,92 %
24.08.2020 10:40 17,8 C 20,0 C 18,3 C 82 % 1016,2 hPa 0,0 l/m 2 min 0 min 547 W/m 0,0 km/h (0 Bft) 97,96 %
24.08.2020 10:42 17,9 C 21,7 C 18,9 C 82 % 1016,2 hPa 0,0 l/m 2 min 0 min 329 W/m 19,3 km/h (3 Bft) 100,00 %
24.08.2020 10:44 18,0 C 21,1 C 18,9 C 81 % 1016,2 hPa 0,0 l/m 2 min 0 min 361 W/m 19,3 km/h (3 Bft) 97,87 %
24.08.2020 10:46 18,1 C 21,1 C 18,9 C 81 % 1016,2 hPa 0,0 l/m 2 min 0 min 388 W/m 12,9 km/h (3 Bft) 100,00 %
24.08.2020 10:48 18,2 C 20,0 C 18,3 C 80 % 1016,2 hPa 0,0 l/m 2 min 0 min 297 W/m 16,1 km/h (3 Bft) 100,00 %
24.08.2020 10:50 18,2 C 20,0 C 18,3 C 80 % 1016,2 hPa 0,0 l/m 2 min 0 min 299 W/m 16,1 km/h (3 Bft) 100,00 %
24.08.2020 10:52 18,2 C 20,0 C 18,3 C 80 % 1016,2 hPa 0,0 l/m 2 min 0 min 305 W/m 12,9 km/h (3 Bft) 100,00 %
24.08.2020 10:54 18,2 C 18,9 C 18,3 C 79 % 1016,2 hPa 0,0 l/m 0 min 0 min 276 W/m 16,1 km/h (3 Bft) 97,92 %
24.08.2020 10:56 18,3 C 18,9 C 18,3 C 80 % 1016,2 hPa 0,0 l/m 0 min 0 min 260 W/m 12,9 km/h (3 Bft) 100,00 %
24.08.2020 10:58 18,2 C 18,3 C 17,8 C 79 % 1016,2 hPa 0,0 l/m 0 min 0 min 247 W/m 16,1 km/h (3 Bft) 95,74 %
24.08.2020 11:00 18,2 C 18,3 C 17,8 C 79 % 1016,2 hPa 0,0 l/m 0 min 0 min 212 W/m 12,9 km/h (3 Bft) 100,00 %
24.08.2020 11:02 18,2 C 18,3 C 17,2 C 80 % 1016,2 hPa 0,0 l/m 0 min 0 min 152 W/m 16,1 km/h (3 Bft) 100,00 %
24.08.2020 11:04 18,1 C 17,8 C 17,2 C 79 % 1016,3 hPa 0,0 l/m 0 min 0 min 142 W/m 19,3 km/h (3 Bft) 100,00 %
24.08.2020 11:06 18,1 C 17,8 C 17,2 C 80 % 1016,2 hPa 0,0 l/m 0 min 0 min 123 W/m 16,1 km/h (3 Bft) 100,00 %
24.08.2020 11:08 18,1 C 17,2 C 17,2 C 80 % 1016,3 hPa 0,0 l/m 0 min 0 min 103 W/m 16,1 km/h (3 Bft) 100,00 %
24.08.2020 11:10 18,0 C 17,2 C 16,7 C 80 % 1016,3 hPa 0,0 l/m 0 min 0 min 92 W/m 19,3 km/h (3 Bft) 97,87 %
24.08.2020 11:12 17,9 C 17,2 C 16,7 C 80 % 1016,3 hPa 0,0 l/m 0 min 0 min 95 W/m 6,4 km/h (2 Bft) 100,00 %
24.08.2020 11:14 17,9 C 17,2 C 16,7 C 80 % 1016,4 hPa 0,0 l/m 0 min 0 min 97 W/m 3,2 km/h (1 Bft) 97,22 %
24.08.2020 11:16 17,8 C 17,2 C 16,7 C 80 % 1016,3 hPa 0,0 l/m 0 min 0 min 100 W/m 6,4 km/h (2 Bft) 100,00 %
24.08.2020 11:18 17,8 C 17,2 C 16,7 C 80 % 1016,3 hPa 0,0 l/m 0 min 0 min 104 W/m 12,9 km/h (3 Bft) 100,00 %
24.08.2020 11:20 17,8 C 17,2 C 16,7 C 80 % 1016,5 hPa 0,0 l/m 0 min 0 min 106 W/m 19,3 km/h (3 Bft) 100,00 %
24.08.2020 11:22 17,7 C 17,2 C 16,7 C 80 % 1016,4 hPa 0,0 l/m 0 min 0 min 113 W/m 19,3 km/h (3 Bft) 100,00 %
24.08.2020 11:24 17,7 C 17,2 C 16,7 C 80 % 1016,3 hPa 0,0 l/m 0 min 0 min 124 W/m 12,9 km/h (3 Bft) 97,83 %
24.08.2020 11:26 17,7 C 17,2 C 16,7 C 81 % 1016,4 hPa 0,0 l/m 0 min 0 min 124 W/m 12,9 km/h (3 Bft) 100,00 %
24.08.2020 11:28 17,6 C 17,2 C 16,7 C 81 % 1016,4 hPa 0,0 l/m 0 min 0 min 127 W/m 12,9 km/h (3 Bft) 98,18 %
24.08.2020 11:30 17,6 C 17,2 C 16,7 C 81 % 1016,5 hPa 0,0 l/m 0 min 0 min 135 W/m 16,1 km/h (3 Bft) 100,00 %
24.08.2020 11:32 17,6 C 17,2 C 16,7 C 81 % 1016,5 hPa 0,0 l/m 0 min 0 min 139 W/m 16,1 km/h (3 Bft) 100,00 %
24.08.2020 11:34 17,5 C 17,2 C 16,7 C 81 % 1016,5 hPa 0,0 l/m 0 min 0 min 129 W/m 16,1 km/h (3 Bft) 100,00 %
24.08.2020 11:36 17,5 C 17,2 C 16,7 C 81 % 1016,4 hPa 0,0 l/m 0 min 0 min 128 W/m 19,3 km/h (3 Bft) 97,87 %
24.08.2020 11:38 17,5 C 17,2 C 16,7 C 81 % 1016,5 hPa 0,0 l/m 0 min 0 min 138 W/m 16,1 km/h (3 Bft) 100,00 %
24.08.2020 11:40 17,4 C 17,2 C 16,7 C 81 % 1016,5 hPa 0,0 l/m 0 min 0 min 142 W/m 0,0 km/h (0 Bft) 100,00 %
24.08.2020 11:42 17,4 C 17,2 C 16,7 C 81 % 1016,5 hPa 0,0 l/m 0 min 0 min 141 W/m 12,9 km/h (3 Bft) 100,00 %
24.08.2020 11:44 17,4 C 17,2 C 16,7 C 81 % 1016,5 hPa 0,0 l/m 0 min 0 min 146 W/m 12,9 km/h (3 Bft) 100,00 %
24.08.2020 11:46 17,4 C 17,2 C 16,7 C 81 % 1016,4 hPa 0,0 l/m 0 min 0 min 164 W/m 3,2 km/h (1 Bft) 100,00 %
24.08.2020 11:48 17,4 C 17,2 C 16,7 C 81 % 1016,4 hPa 0,0 l/m 0 min 0 min 186 W/m 0,0 km/h (0 Bft) 100,00 %
24.08.2020 11:50 17,4 C 17,8 C 16,7 C 81 % 1016,4 hPa 0,0 l/m 0 min 0 min 196 W/m 6,4 km/h (2 Bft) 100,00 %
24.08.2020 11:52 17,5 C 17,8 C 17,2 C 82 % 1016,4 hPa 0,0 l/m 0 min 0 min 203 W/m 3,2 km/h (1 Bft) 100,00 %
24.08.2020 11:54 17,5 C 17,8 C 17,2 C 82 % 1016,4 hPa 0,0 l/m 0 min 0 min 211 W/m 6,4 km/h (2 Bft) 97,92 %
24.08.2020 11:56 17,5 C 17,8 C 17,2 C 82 % 1016,4 hPa 0,0 l/m 0 min 0 min 217 W/m 9,7 km/h (2 Bft) 100,00 %
24.08.2020 11:58 17,6 C 17,8 C 17,2 C 81 % 1016,5 hPa 0,0 l/m 0 min 0 min 215 W/m 12,9 km/h (3 Bft) 100,00 %
24.08.2020 12:00 17,6 C 17,8 C 17,2 C 81 % 1016,4 hPa 0,0 l/m 0 min 0 min 206 W/m 12,9 km/h (3 Bft) 100,00 %
24.08.2020 12:02 17,6 C 17,8 C 17,2 C 82 % 1016,4 hPa 0,0 l/m 0 min 0 min 200 W/m 16,1 km/h (3 Bft) 97,14 %
24.08.2020 12:04 17,6 C 18,3 C 17,2 C 81 % 1016,4 hPa 0,0 l/m 0 min 0 min 209 W/m 12,9 km/h (3 Bft) 100,00 %
24.08.2020 12:07 17,7 C 18,3 C 17,2 C 82 % 1016,4 hPa 0,0 l/m 0 min 0 min 243 W/m 16,1 km/h (3 Bft) 100,00 %
24.08.2020 12:08 17,7 C 18,3 C 17,2 C 82 % 1016,4 hPa 0,0 l/m 0 min 0 min 264 W/m 16,1 km/h (3 Bft) 95,83 %
24.08.2020 12:10 17,7 C 18,9 C 17,8 C 81 % 1016,3 hPa 0,0 l/m 0 min 0 min 288 W/m 9,7 km/h (2 Bft) 100,00 %
24.08.2020 12:12 17,8 C 18,9 C 17,8 C 81 % 1016,4 hPa 0,0 l/m 0 min 0 min 311 W/m 16,1 km/h (3 Bft) 97,87 %
24.08.2020 12:14 17,8 C 18,9 C 17,8 C 80 % 1016,4 hPa 0,0 l/m 0 min 0 min 318 W/m 12,9 km/h (3 Bft) 100,00 %
24.08.2020 12:16 17,9 C 19,4 C 18,3 C 80 % 1016,3 hPa 0,0 l/m 0 min 0 min 303 W/m 9,7 km/h (2 Bft) 97,87 %
24.08.2020 12:18 18,0 C 19,4 C 18,3 C 80 % 1016,3 hPa 0,0 l/m 0 min 0 min 278 W/m 12,9 km/h (3 Bft) 97,14 %
24.08.2020 12:20 18,1 C 19,4 C 18,3 C 80 % 1016,3 hPa 0,0 l/m 0 min 0 min 265 W/m 12,9 km/h (3 Bft) 98,15 %
24.08.2020 12:22 18,2 C 19,4 C 18,9 C 80 % 1016,3 hPa 0,0 l/m 0 min 0 min 267 W/m 12,9 km/h (3 Bft) 98,00 %
24.08.2020 12:24 18,3 C 19,4 C 18,9 C 80 % 1016,3 hPa 0,0 l/m 0 min 0 min 254 W/m 12,9 km/h (3 Bft) 95,83 %
24.08.2020 12:26 18,3 C 19,4 C 18,9 C 79 % 1016,3 hPa 0,0 l/m 0 min 0 min 247 W/m 6,4 km/h (2 Bft) 97,87 %
24.08.2020 12:28 18,4 C 19,4 C 18,9 C 79 % 1016,3 hPa 0,0 l/m 0 min 0 min 233 W/m 16,1 km/h (3 Bft) 97,87 %
24.08.2020 12:30 18,4 C 18,9 C 18,3 C 79 % 1016,3 hPa 0,0 l/m 0 min 0 min 192 W/m 25,7 km/h (4 Bft) 94,29 %
24.08.2020 12:32 18,4 C 18,9 C 18,3 C 79 % 1016,2 hPa 0,0 l/m 0 min 0 min 174 W/m 3,2 km/h (1 Bft) 96,36 %
24.08.2020 12:34 18,5 C 18,9 C 18,3 C 78 % 1016,2 hPa 0,0 l/m 0 min 0 min 193 W/m 12,9 km/h (3 Bft) 97,92 %
24.08.2020 12:36 18,6 C 19,4 C 18,3 C 78 % 1016,2 hPa 0,0 l/m 0 min 0 min 263 W/m 3,2 km/h (1 Bft) 97,92 %
24.08.2020 12:38 18,6 C 20,0 C 18,9 C 78 % 1016,2 hPa 0,0 l/m 0 min 0 min 341 W/m 16,1 km/h (3 Bft) 97,92 %
24.08.2020 12:40 18,6 C 20,6 C 18,9 C 77 % 1016,2 hPa 0,0 l/m 2 min 0 min 394 W/m 22,5 km/h (4 Bft) 91,43 %
24.08.2020 12:42 18,7 C 21,7 C 19,4 C 77 % 1016,2 hPa 0,0 l/m 2 min 0 min 557 W/m 22,5 km/h (4 Bft) 96,43 %
24.08.2020 12:44 18,8 C 22,8 C 19,4 C 77 % 1016,3 hPa 0,0 l/m 2 min 0 min 578 W/m 19,3 km/h (3 Bft) 97,96 %
24.08.2020 12:46 18,9 C 23,3 C 20,0 C 77 % 1016,3 hPa 0,0 l/m 2 min 0 min 645 W/m 16,1 km/h (3 Bft) 95,74 %
24.08.2020 12:48 19,1 C 25,0 C 20,0 C 76 % 1016,2 hPa 0,0 l/m 2 min 0 min 824 W/m 19,3 km/h (3 Bft) 93,62 %
24.08.2020 12:50 19,3 C 25,0 C 20,0 C 76 % 1016,2 hPa 0,0 l/m 2 min 0 min 917 W/m 16,1 km/h (3 Bft) 91,43 %
24.08.2020 12:52 19,4 C 23,9 C 20,0 C 75 % 1016,1 hPa 0,0 l/m 2 min 0 min 914 W/m 22,5 km/h (4 Bft) 96,30 %
24.08.2020 12:54 19,6 C 22,8 C 20,0 C 74 % 1016,2 hPa 0,0 l/m 2 min 0 min 611 W/m 19,3 km/h (3 Bft) 95,92 %
24.08.2020 12:56 19,7 C 22,8 C 20,0 C 73 % 1016,1 hPa 0,0 l/m 2 min 0 min 523 W/m 22,5 km/h (4 Bft) 91,84 %
24.08.2020 12:58 19,8 C 24,4 C 20,0 C 73 % 1016,1 hPa 0,0 l/m 2 min 0 min 775 W/m 22,5 km/h (4 Bft) 95,74 %
24.08.2020 13:00 19,9 C 24,4 C 20,6 C 73 % 1016,1 hPa 0,0 l/m 2 min 0 min 803 W/m 19,3 km/h (3 Bft) 95,74 %
24.08.2020 13:02 20,1 C 26,7 C 20,6 C 74 % 1016,1 hPa 0,0 l/m 2 min 0 min 905 W/m 16,1 km/h (3 Bft) 97,14 %
24.08.2020 13:04 20,3 C 25,0 C 20,6 C 72 % 1016,1 hPa 0,0 l/m 2 min 0 min 1050 W/m 16,1 km/h (3 Bft) 94,64 %
24.08.2020 13:06 20,4 C 25,0 C 20,6 C 72 % 1016,0 hPa 0,0 l/m 2 min 0 min 939 W/m 9,7 km/h (2 Bft) 95,83 %
24.08.2020 13:08 20,5 C 23,3 C 20,6 C 71 % 1016,0 hPa 0,0 l/m 2 min 0 min 464 W/m 12,9 km/h (3 Bft) 95,83 %
24.08.2020 13:10 20,6 C 22,2 C 20,0 C 71 % 1016,0 hPa 0,0 l/m 0 min 0 min 298 W/m 16,1 km/h (3 Bft) 97,87 %
24.08.2020 13:12 20,6 C 22,2 C 20,0 C 70 % 1016,0 hPa 0,0 l/m 0 min 0 min 360 W/m 16,1 km/h (3 Bft) 91,43 %
24.08.2020 13:14 20,6 C 22,8 C 20,0 C 70 % 1015,9 hPa 0,0 l/m 2 min 0 min 473 W/m 9,7 km/h (2 Bft) 96,36 %
24.08.2020 13:16 20,7 C 23,9 C 20,6 C 69 % 1015,9 hPa 0,0 l/m 2 min 0 min 581 W/m 19,3 km/h (3 Bft) 95,92 %
24.08.2020 13:18 20,7 C 24,4 C 21,1 C 70 % 1015,9 hPa 0,0 l/m 2 min 0 min 741 W/m 22,5 km/h (4 Bft) 95,83 %
24.08.2020 13:20 20,8 C 24,4 C 21,1 C 68 % 1015,9 hPa 0,0 l/m 2 min 0 min 629 W/m 16,1 km/h (3 Bft) 95,74 %
24.08.2020 13:22 20,9 C 24,4 C 21,1 C 67 % 1016,0 hPa 0,0 l/m 2 min 0 min 816 W/m 22,5 km/h (4 Bft) 93,62 %
24.08.2020 13:24 21,0 C 23,9 C 21,1 C 68 % 1015,9 hPa 0,0 l/m 2 min 0 min 741 W/m 16,1 km/h (3 Bft) 94,29 %
24.08.2020 13:26 21,1 C 22,8 C 21,1 C 67 % 1015,8 hPa 0,0 l/m 2 min 0 min 425 W/m 16,1 km/h (3 Bft) 93,62 %
24.08.2020 13:28 21,1 C 22,2 C 20,6 C 66 % 1015,9 hPa 0,0 l/m 0 min 0 min 330 W/m 16,1 km/h (3 Bft) 94,44 %
24.08.2020 13:30 21,1 C 21,1 C 20,6 C 66 % 1015,9 hPa 0,0 l/m 0 min 0 min 299 W/m 19,3 km/h (3 Bft) 93,75 %
24.08.2020 13:32 21,0 C 21,1 C 20,0 C 66 % 1015,8 hPa 0,0 l/m 0 min 0 min 288 W/m 25,7 km/h (4 Bft) 96,00 %
24.08.2020 13:34 20,9 C 21,1 C 20,0 C 66 % 1015,8 hPa 0,0 l/m 0 min 0 min 290 W/m 12,9 km/h (3 Bft) 97,73 %
24.08.2020 13:36 20,9 C 21,1 C 20,0 C 66 % 1015,8 hPa 0,0 l/m 0 min 0 min 271 W/m 16,1 km/h (3 Bft) 97,87 %
24.08.2020 13:38 20,8 C 21,1 C 20,0 C 66 % 1015,9 hPa 0,0 l/m 0 min 0 min 291 W/m 16,1 km/h (3 Bft) 97,87 %
24.08.2020 13:40 20,8 C 21,7 C 20,0 C 65 % 1015,9 hPa 0,0 l/m 2 min 0 min 386 W/m 16,1 km/h (3 Bft) 96,23 %
24.08.2020 13:42 20,8 C 21,1 C 20,0 C 66 % 1015,8 hPa 0,0 l/m 0 min 0 min 329 W/m 19,3 km/h (3 Bft) 97,22 %
24.08.2020 13:44 20,7 C 20,6 C 20,0 C 65 % 1015,9 hPa 0,0 l/m 0 min 0 min 273 W/m 22,5 km/h (4 Bft) 97,96 %
24.08.2020 13:46 20,7 C 20,6 C 20,0 C 65 % 1015,8 hPa 0,0 l/m 0 min 0 min 233 W/m 32,2 km/h (5 Bft) 97,92 %
24.08.2020 13:48 20,6 C 20,6 C 20,0 C 66 % 1015,8 hPa 0,0 l/m 0 min 0 min 212 W/m 6,4 km/h (2 Bft) 97,92 %
24.08.2020 13:50 20,6 C 20,6 C 20,0 C 66 % 1015,9 hPa 0,0 l/m 0 min 0 min 206 W/m 16,1 km/h (3 Bft) 95,74 %
24.08.2020 13:52 20,6 C 20,6 C 20,0 C 66 % 1015,9 hPa 0,0 l/m 0 min 0 min 207 W/m 19,3 km/h (3 Bft) 97,87 %
24.08.2020 13:54 20,5 C 20,6 C 19,4 C 65 % 1015,9 hPa 0,0 l/m 0 min 0 min 214 W/m 12,9 km/h (3 Bft) 97,62 %
24.08.2020 13:56 20,4 C 20,0 C 19,4 C 66 % 1015,9 hPa 0,0 l/m 0 min 0 min 222 W/m 29,0 km/h (5 Bft) 97,96 %
24.08.2020 13:58 20,4 C 20,6 C 19,4 C 66 % 1015,9 hPa 0,0 l/m 0 min 0 min 233 W/m 9,7 km/h (2 Bft) 97,92 %
24.08.2020 14:00 20,3 C 20,6 C 19,4 C 66 % 1015,9 hPa 0,0 l/m 0 min 0 min 232 W/m 16,1 km/h (3 Bft) 95,83 %
24.08.2020 14:02 20,3 C 20,0 C 19,4 C 66 % 1015,9 hPa 0,0 l/m 0 min 0 min 195 W/m 19,3 km/h (3 Bft) 95,74 %
24.08.2020 14:04 20,3 C 20,0 C 19,4 C 67 % 1015,9 hPa 0,0 l/m 0 min 0 min 158 W/m 16,1 km/h (3 Bft) 95,74 %
24.08.2020 14:06 20,3 C 20,0 C 19,4 C 66 % 1016,0 hPa 0,0 l/m 0 min 0 min 159 W/m 16,1 km/h (3 Bft) 97,87 %
24.08.2020 14:08 20,2 C 20,0 C 19,4 C 67 % 1015,9 hPa 0,0 l/m 0 min 0 min 162 W/m 0,0 km/h (0 Bft) 95,65 %
24.08.2020 14:10 20,2 C 20,0 C 19,4 C 67 % 1015,9 hPa 0,0 l/m 0 min 0 min 186 W/m 16,1 km/h (3 Bft) 97,87 %
24.08.2020 14:12 20,2 C 20,0 C 19,4 C 68 % 1016,0 hPa 0,0 l/m 0 min 0 min 246 W/m 0,0 km/h (0 Bft) 95,35 %
24.08.2020 14:14 20,2 C 20,6 C 19,4 C 68 % 1015,9 hPa 0,0 l/m 0 min 0 min 305 W/m 0,0 km/h (0 Bft) 98,00 %
24.08.2020 14:16 20,2 C 21,1 C 20,0 C 68 % 1016,0 hPa 0,0 l/m 0 min 0 min 350 W/m 0,0 km/h (0 Bft) 97,92 %
24.08.2020 14:18 20,2 C 21,7 C 20,0 C 69 % 1015,9 hPa 0,0 l/m 0 min 0 min 354 W/m 0,0 km/h (0 Bft) 97,87 %
24.08.2020 14:20 20,3 C 22,2 C 20,0 C 69 % 1015,9 hPa 0,0 l/m 0 min 0 min 345 W/m 12,9 km/h (3 Bft) 95,65 %
24.08.2020 14:22 20,3 C 22,2 C 20,6 C 68 % 1015,8 hPa 0,0 l/m 0 min 0 min 349 W/m 9,7 km/h (2 Bft) 97,87 %
24.08.2020 14:24 20,4 C 22,2 C 20,6 C 68 % 1015,8 hPa 0,0 l/m 0 min 0 min 310 W/m 0,0 km/h (0 Bft) 100,00 %
24.08.2020 14:26 20,4 C 22,2 C 20,6 C 68 % 1015,8 hPa 0,0 l/m 0 min 0 min 320 W/m 0,0 km/h (0 Bft) 97,92 %
24.08.2020 14:28 20,5 C 22,2 C 20,6 C 68 % 1015,9 hPa 0,0 l/m 0 min 0 min 355 W/m 16,1 km/h (3 Bft) 100,00 %
24.08.2020 14:30 20,6 C 22,2 C 20,6 C 68 % 1015,8 hPa 0,0 l/m 0 min 0 min 296 W/m 6,4 km/h (2 Bft) 100,00 %
24.08.2020 14:32 20,6 C 22,2 C 20,6 C 68 % 1015,9 hPa 0,0 l/m 0 min 0 min 287 W/m 9,7 km/h (2 Bft) 100,00 %
24.08.2020 14:34 20,7 C 22,2 C 20,6 C 68 % 1015,8 hPa 0,0 l/m 0 min 0 min 338 W/m 9,7 km/h (2 Bft) 97,87 %
24.08.2020 14:36 20,7 C 22,2 C 20,6 C 67 % 1015,8 hPa 0,0 l/m 2 min 0 min 368 W/m 12,9 km/h (3 Bft) 100,00 %
24.08.2020 14:38 20,8 C 22,8 C 20,6 C 67 % 1015,7 hPa 0,0 l/m 2 min 0 min 372 W/m 12,9 km/h (3 Bft) 100,00 %
24.08.2020 14:40 20,8 C 23,3 C 21,1 C 67 % 1015,7 hPa 0,0 l/m 2 min 0 min 411 W/m 9,7 km/h (2 Bft) 100,00 %
24.08.2020 14:42 20,9 C 22,8 C 20,6 C 67 % 1015,8 hPa 0,0 l/m 0 min 0 min 331 W/m 12,9 km/h (3 Bft) 97,96 %
24.08.2020 14:44 21,0 C 22,2 C 20,6 C 66 % 1015,8 hPa 0,0 l/m 0 min 0 min 246 W/m 6,4 km/h (2 Bft) 95,65 %
24.08.2020 14:46 21,0 C 21,7 C 20,6 C 66 % 1015,8 hPa 0,0 l/m 0 min 0 min 209 W/m 9,7 km/h (2 Bft) 98,15 %
24.08.2020 14:48 21,1 C 21,1 C 20,0 C 65 % 1015,8 hPa 0,0 l/m 0 min 0 min 162 W/m 9,7 km/h (2 Bft) 97,37 %
24.08.2020 14:50 21,0 C 20,0 C 20,0 C 65 % 1015,9 hPa 0,0 l/m 0 min 0 min 131 W/m 16,1 km/h (3 Bft) 97,92 %
24.08.2020 14:52 20,9 C 20,0 C 20,0 C 65 % 1015,8 hPa 0,0 l/m 0 min 0 min 121 W/m 16,1 km/h (3 Bft) 97,92 %
24.08.2020 14:54 20,9 C 20,0 C 19,4 C 65 % 1015,8 hPa 0,0 l/m 0 min 0 min 129 W/m 12,9 km/h (3 Bft) 97,83 %
24.08.2020 14:56 20,8 C 20,0 C 19,4 C 64 % 1015,8 hPa 0,0 l/m 0 min 0 min 130 W/m 16,1 km/h (3 Bft) 97,87 %
24.08.2020 14:58 20,8 C 20,0 C 19,4 C 65 % 1015,7 hPa 0,0 l/m 0 min 0 min 130 W/m 9,7 km/h (2 Bft) 97,87 %
24.08.2020 15:00 20,7 C 20,0 C 19,4 C 66 % 1015,8 hPa 0,0 l/m 0 min 0 min 165 W/m 9,7 km/h (2 Bft) 97,87 %
24.08.2020 15:02 20,7 C 20,0 C 19,4 C 66 % 1015,8 hPa 0,0 l/m 0 min 0 min 182 W/m 9,7 km/h (2 Bft) 93,62 %
24.08.2020 15:04 20,6 C 20,0 C 19,4 C 65 % 1015,8 hPa 0,0 l/m 0 min 0 min 175 W/m 16,1 km/h (3 Bft) 97,87 %
24.08.2020 15:06 20,6 C 20,0 C 19,4 C 65 % 1015,8 hPa 0,0 l/m 0 min 0 min 148 W/m 6,4 km/h (2 Bft) 97,83 %
24.08.2020 15:08 20,5 C 20,0 C 19,4 C 66 % 1015,8 hPa 0,0 l/m 0 min 0 min 122 W/m 0,0 km/h (0 Bft) 97,87 %
24.08.2020 15:10 20,5 C 20,0 C 19,4 C 66 % 1015,8 hPa 0,0 l/m 0 min 0 min 141 W/m 12,9 km/h (3 Bft) 97,87 %
24.08.2020 15:12 20,5 C 20,6 C 19,4 C 66 % 1015,8 hPa 0,0 l/m 0 min 0 min 209 W/m 9,7 km/h (2 Bft) 97,87 %
24.08.2020 15:14 20,4 C 20,6 C 19,4 C 67 % 1015,8 hPa 0,0 l/m 0 min 0 min 232 W/m 12,9 km/h (3 Bft) 97,87 %
24.08.2020 15:16 20,4 C 20,6 C 20,0 C 66 % 1015,9 hPa 0,0 l/m 0 min 0 min 192 W/m 9,7 km/h (2 Bft) 97,87 %
24.08.2020 15:18 20,4 C 20,6 C 20,0 C 66 % 1015,8 hPa 0,0 l/m 0 min 0 min 164 W/m 6,4 km/h (2 Bft) 97,83 %
24.08.2020 15:20 20,4 C 20,0 C 19,4 C 66 % 1015,9 hPa 0,0 l/m 0 min 0 min 141 W/m 12,9 km/h (3 Bft) 95,74 %
24.08.2020 15:22 20,4 C 20,0 C 19,4 C 66 % 1015,8 hPa 0,0 l/m 0 min 0 min 129 W/m 9,7 km/h (2 Bft) 95,74 %
24.08.2020 15:24 20,4 C 20,0 C 19,4 C 66 % 1015,8 hPa 0,0 l/m 0 min 0 min 123 W/m 12,9 km/h (3 Bft) 100,00 %
24.08.2020 15:26 20,4 C 20,0 C 19,4 C 66 % 1015,8 hPa 0,0 l/m 0 min 0 min 125 W/m 12,9 km/h (3 Bft) 97,87 %
24.08.2020 15:28 20,4 C 20,0 C 19,4 C 66 % 1015,8 hPa 0,0 l/m 0 min 0 min 145 W/m 9,7 km/h (2 Bft) 95,74 %
24.08.2020 15:30 20,4 C 20,0 C 19,4 C 67 % 1015,8 hPa 0,0 l/m 0 min 0 min 158 W/m 12,9 km/h (3 Bft) 100,00 %
24.08.2020 15:32 20,4 C 20,0 C 19,4 C 67 % 1015,8 hPa 0,0 l/m 0 min 0 min 168 W/m 0,0 km/h (0 Bft) 100,00 %
24.08.2020 15:34 20,4 C 20,0 C 19,4 C 66 % 1015,9 hPa 0,0 l/m 0 min 0 min 196 W/m 9,7 km/h (2 Bft) 100,00 %
24.08.2020 15:36 20,4 C 22,2 C 20,0 C 67 % 1015,8 hPa 0,0 l/m 0 min 0 min 258 W/m 6,4 km/h (2 Bft) 95,74 %
24.08.2020 15:38 20,4 C 22,8 C 20,0 C 67 % 1015,8 hPa 0,0 l/m 0 min 0 min 313 W/m 6,4 km/h (2 Bft) 100,00 %
24.08.2020 15:40 20,4 C 22,2 C 20,0 C 68 % 1015,7 hPa 0,0 l/m 0 min 0 min 253 W/m 16,1 km/h (3 Bft) 100,00 %
24.08.2020 15:42 20,6 C 21,7 C 20,0 C 67 % 1015,8 hPa 0,0 l/m 0 min 0 min 214 W/m 25,7 km/h (4 Bft) 100,00 %
24.08.2020 15:44 20,6 C 21,1 C 20,0 C 66 % 1015,8 hPa 0,0 l/m 0 min 0 min 194 W/m 12,9 km/h (3 Bft) 100,00 %
24.08.2020 15:46 20,6 C 21,1 C 20,0 C 66 % 1015,8 hPa 0,0 l/m 0 min 0 min 225 W/m 12,9 km/h (3 Bft) 100,00 %
24.08.2020 15:48 20,6 C 21,1 C 20,0 C 66 % 1015,7 hPa 0,0 l/m 0 min 0 min 271 W/m 6,4 km/h (2 Bft) 97,87 %
24.08.2020 15:50 20,6 C 21,7 C 20,0 C 65 % 1015,8 hPa 0,0 l/m 0 min 0 min 296 W/m 12,9 km/h (3 Bft) 97,83 %
24.08.2020 15:52 20,7 C 21,7 C 20,0 C 65 % 1015,8 hPa 0,0 l/m 0 min 0 min 294 W/m 16,1 km/h (3 Bft) 97,87 %
24.08.2020 15:54 20,7 C 21,7 C 20,0 C 65 % 1015,8 hPa 0,0 l/m 0 min 0 min 292 W/m 6,4 km/h (2 Bft) 97,87 %
24.08.2020 15:56 20,7 C 22,2 C 20,6 C 66 % 1015,8 hPa 0,0 l/m 0 min 0 min 311 W/m 16,1 km/h (3 Bft) 97,87 %
24.08.2020 15:58 20,8 C 22,2 C 20,6 C 65 % 1015,7 hPa 0,0 l/m 0 min 0 min 292 W/m 12,9 km/h (3 Bft) 97,87 %
24.08.2020 16:00 20,8 C 21,7 C 20,6 C 65 % 1015,7 hPa 0,0 l/m 0 min 0 min 260 W/m 12,9 km/h (3 Bft) 97,87 %
24.08.2020 16:02 20,9 C 21,7 C 20,6 C 66 % 1015,7 hPa 0,0 l/m 0 min 0 min 250 W/m 16,1 km/h (3 Bft) 97,83 %
24.08.2020 16:04 20,9 C 21,7 C 20,6 C 66 % 1015,7 hPa 0,0 l/m 0 min 0 min 241 W/m 9,7 km/h (2 Bft) 97,87 %
24.08.2020 16:06 20,9 C 21,7 C 20,6 C 66 % 1015,7 hPa 0,0 l/m 0 min 0 min 231 W/m 12,9 km/h (3 Bft) 95,74 %
24.08.2020 16:08 20,9 C 21,7 C 20,0 C 65 % 1015,7 hPa 0,0 l/m 0 min 0 min 209 W/m 16,1 km/h (3 Bft) 97,87 %
24.08.2020 16:10 20,9 C 21,1 C 20,0 C 64 % 1015,7 hPa 0,0 l/m 0 min 0 min 184 W/m 16,1 km/h (3 Bft) 97,87 %
24.08.2020 16:12 20,9 C 21,1 C 20,0 C 64 % 1015,6 hPa 0,0 l/m 0 min 0 min 178 W/m 16,1 km/h (3 Bft) 97,87 %
24.08.2020 16:14 20,9 C 21,1 C 20,0 C 64 % 1015,6 hPa 0,0 l/m 0 min 0 min 208 W/m 16,1 km/h (3 Bft) 97,83 %
24.08.2020 16:16 20,9 C 21,1 C 20,0 C 64 % 1015,6 hPa 0,0 l/m 0 min 0 min 277 W/m 12,9 km/h (3 Bft) 95,74 %
24.08.2020 16:18 20,9 C 23,3 C 20,6 C 64 % 1015,6 hPa 0,0 l/m 2 min 0 min 445 W/m 3,2 km/h (1 Bft) 95,74 %
24.08.2020 16:20 21,0 C 23,3 C 20,6 C 64 % 1015,6 hPa 0,0 l/m 2 min 0 min 819 W/m 12,9 km/h (3 Bft) 97,87 %
24.08.2020 16:22 21,1 C 22,8 C 20,6 C 63 % 1015,6 hPa 0,0 l/m 2 min 0 min 387 W/m 16,1 km/h (3 Bft) 97,87 %
24.08.2020 16:24 21,1 C 22,8 C 20,6 C 63 % 1015,6 hPa 0,0 l/m 0 min 0 min 267 W/m 6,4 km/h (2 Bft) 97,87 %
24.08.2020 16:26 21,1 C 22,2 C 20,6 C 63 % 1015,6 hPa 0,0 l/m 0 min 0 min 274 W/m 3,2 km/h (1 Bft) 97,83 %
24.08.2020 16:28 21,2 C 22,2 C 20,6 C 63 % 1015,6 hPa 0,0 l/m 0 min 0 min 246 W/m 6,4 km/h (2 Bft) 97,87 %
24.08.2020 16:30 21,2 C 21,7 C 20,6 C 63 % 1015,5 hPa 0,0 l/m 0 min 0 min 213 W/m 16,1 km/h (3 Bft) 95,74 %
24.08.2020 16:32 21,2 C 21,7 C 20,0 C 62 % 1015,5 hPa 0,0 l/m 0 min 0 min 180 W/m 16,1 km/h (3 Bft) 97,92 %
24.08.2020 16:34 21,2 C 21,1 C 20,0 C 62 % 1015,5 hPa 0,0 l/m 0 min 0 min 175 W/m 16,1 km/h (3 Bft) 97,87 %
24.08.2020 16:36 21,2 C 21,1 C 20,0 C 62 % 1015,5 hPa 0,0 l/m 0 min 0 min 195 W/m 12,9 km/h (3 Bft) 97,83 %
24.08.2020 16:38 21,2 C 21,1 C 20,0 C 63 % 1015,5 hPa 0,0 l/m 0 min 0 min 187 W/m 6,4 km/h (2 Bft) 97,87 %
24.08.2020 16:40 21,2 C 21,1 C 20,0 C 63 % 1015,5 hPa 0,0 l/m 0 min 0 min 184 W/m 12,9 km/h (3 Bft) 97,87 %
24.08.2020 16:42 21,2 C 21,7 C 20,0 C 63 % 1015,4 hPa 0,0 l/m 0 min 0 min 200 W/m 12,9 km/h (3 Bft) 100,00 %
24.08.2020 16:44 21,2 C 22,8 C 20,0 C 62 % 1015,4 hPa 0,0 l/m 0 min 0 min 261 W/m 12,9 km/h (3 Bft) 100,00 %
24.08.2020 16:46 21,2 C 23,3 C 20,6 C 62 % 1015,4 hPa 0,0 l/m 2 min 0 min 337 W/m 12,9 km/h (3 Bft) 97,83 %
24.08.2020 16:48 21,2 C 23,9 C 20,6 C 63 % 1015,4 hPa 0,0 l/m 2 min 0 min 295 W/m 12,9 km/h (3 Bft) 97,87 %
24.08.2020 16:50 21,3 C 25,6 C 21,1 C 62 % 1015,4 hPa 0,0 l/m 2 min 0 min 595 W/m 9,7 km/h (2 Bft) 100,00 %
24.08.2020 16:52 21,4 C 25,6 C 21,1 C 61 % 1015,4 hPa 0,0 l/m 2 min 0 min 725 W/m 19,3 km/h (3 Bft) 100,00 %
24.08.2020 16:54 21,6 C 23,9 C 21,1 C 60 % 1015,5 hPa 0,0 l/m 2 min 0 min 649 W/m 16,1 km/h (3 Bft) 95,74 %
24.08.2020 16:56 21,7 C 23,9 C 21,1 C 61 % 1015,4 hPa 0,0 l/m 2 min 0 min 297 W/m 12,9 km/h (3 Bft) 97,87 %
24.08.2020 16:58 21,7 C 23,3 C 21,1 C 61 % 1015,3 hPa 0,0 l/m 2 min 0 min 339 W/m 12,9 km/h (3 Bft) 97,87 %
24.08.2020 17:00 21,8 C 23,3 C 21,1 C 60 % 1015,4 hPa 0,0 l/m 2 min 0 min 612 W/m 12,9 km/h (3 Bft) 97,83 %
24.08.2020 17:02 21,9 C 22,8 C 21,1 C 61 % 1015,4 hPa 0,0 l/m 0 min 0 min 239 W/m 9,7 km/h (2 Bft) 97,87 %
24.08.2020 17:04 21,9 C 22,2 C 20,6 C 60 % 1015,4 hPa 0,0 l/m 0 min 0 min 230 W/m 19,3 km/h (3 Bft) 97,87 %
24.08.2020 17:06 21,9 C 22,2 C 20,6 C 60 % 1015,4 hPa 0,0 l/m 2 min 0 min 299 W/m 12,9 km/h (3 Bft) 95,74 %
24.08.2020 17:08 21,9 C 23,9 C 22,2 C 60 % 1015,4 hPa 0,0 l/m 2 min 0 min 443 W/m 9,7 km/h (2 Bft) 97,87 %
24.08.2020 17:10 22,0 C 23,9 C 22,2 C 61 % 1015,3 hPa 0,0 l/m 2 min 0 min 627 W/m 16,1 km/h (3 Bft) 97,83 %
24.08.2020 17:12 22,0 C 22,8 C 21,1 C 60 % 1015,3 hPa 0,0 l/m 0 min 0 min 187 W/m 12,9 km/h (3 Bft) 95,74 %
24.08.2020 17:14 22,1 C 23,3 C 21,1 C 60 % 1015,3 hPa 0,0 l/m 0 min 0 min 190 W/m 16,1 km/h (3 Bft) 93,62 %
24.08.2020 17:16 22,1 C 24,4 C 21,1 C 60 % 1015,3 hPa 0,0 l/m 2 min 0 min 391 W/m 12,9 km/h (3 Bft) 93,62 %
24.08.2020 17:18 22,1 C 25,6 C 21,1 C 59 % 1015,3 hPa 0,0 l/m 2 min 0 min 590 W/m 12,9 km/h (3 Bft) 95,74 %
24.08.2020 17:20 22,2 C 25,6 C 21,1 C 59 % 1015,3 hPa 0,0 l/m 2 min 0 min 589 W/m 9,7 km/h (2 Bft) 93,62 %
24.08.2020 17:22 22,3 C 25,6 C 21,1 C 58 % 1015,3 hPa 0,0 l/m 2 min 0 min 573 W/m 16,1 km/h (3 Bft) 95,65 %
24.08.2020 17:24 22,3 C 25,0 C 21,1 C 59 % 1015,3 hPa 0,0 l/m 2 min 0 min 563 W/m 16,1 km/h (3 Bft) 95,74 %
24.08.2020 17:26 22,4 C 25,6 C 21,1 C 59 % 1015,2 hPa 0,0 l/m 2 min 0 min 537 W/m 16,1 km/h (3 Bft) 93,62 %
24.08.2020 17:28 22,5 C 26,1 C 21,1 C 58 % 1015,3 hPa 0,0 l/m 2 min 0 min 535 W/m 12,9 km/h (3 Bft) 95,74 %
24.08.2020 17:30 22,6 C 24,4 C 20,6 C 58 % 1015,2 hPa 0,0 l/m 2 min 0 min 454 W/m 22,5 km/h (4 Bft) 95,74 %
24.08.2020 17:32 22,6 C 22,8 C 20,6 C 56 % 1015,2 hPa 0,0 l/m 0 min 0 min 119 W/m 12,9 km/h (3 Bft) 93,75 %
24.08.2020 17:34 22,6 C 22,2 C 20,6 C 57 % 1015,2 hPa 0,0 l/m 0 min 0 min 138 W/m 12,9 km/h (3 Bft) 95,65 %
24.08.2020 17:36 22,6 C 21,7 C 20,0 C 57 % 1015,2 hPa 0,0 l/m 0 min 0 min 135 W/m 6,4 km/h (2 Bft) 93,62 %
24.08.2020 17:38 22,4 C 21,1 C 20,0 C 56 % 1015,1 hPa 0,0 l/m 0 min 0 min 107 W/m 12,9 km/h (3 Bft) 95,74 %
24.08.2020 17:40 22,4 C 21,1 C 20,0 C 56 % 1015,2 hPa 0,0 l/m 0 min 0 min 116 W/m 16,1 km/h (3 Bft) 95,74 %
24.08.2020 17:42 22,3 C 22,2 C 20,0 C 56 % 1015,2 hPa 0,0 l/m 2 min 0 min 250 W/m 9,7 km/h (2 Bft) 95,74 %
24.08.2020 17:44 22,3 C 22,8 C 20,6 C 57 % 1015,2 hPa 0,0 l/m 2 min 0 min 424 W/m 12,9 km/h (3 Bft) 95,74 %
24.08.2020 17:46 22,2 C 23,9 C 20,6 C 57 % 1015,2 hPa 0,0 l/m 2 min 0 min 386 W/m 6,4 km/h (2 Bft) 95,65 %
24.08.2020 17:48 22,3 C 25,0 C 20,6 C 58 % 1015,1 hPa 0,0 l/m 2 min 0 min 527 W/m 12,9 km/h (3 Bft) 93,62 %
24.08.2020 17:50 22,3 C 25,0 C 20,6 C 57 % 1015,1 hPa 0,0 l/m 2 min 0 min 498 W/m 9,7 km/h (2 Bft) 93,62 %
24.08.2020 17:52 22,3 C 25,0 C 20,6 C 58 % 1015,1 hPa 0,0 l/m 2 min 0 min 483 W/m 6,4 km/h (2 Bft) 97,87 %
24.08.2020 17:54 22,4 C 25,0 C 20,6 C 58 % 1015,1 hPa 0,0 l/m 2 min 0 min 463 W/m 19,3 km/h (3 Bft) 100,00 %
24.08.2020 17:56 22,4 C 25,0 C 20,6 C 58 % 1015,1 hPa 0,0 l/m 2 min 0 min 443 W/m 16,1 km/h (3 Bft) 100,00 %
24.08.2020 17:58 22,5 C 25,0 C 20,6 C 57 % 1015,1 hPa 0,0 l/m 2 min 0 min 434 W/m 16,1 km/h (3 Bft) 100,00 %
24.08.2020 18:00 22,6 C 23,3 C 20,6 C 57 % 1015,1 hPa 0,0 l/m 2 min 0 min 429 W/m 9,7 km/h (2 Bft) 100,00 %
24.08.2020 18:02 22,6 C 22,2 C 20,6 C 56 % 1015,0 hPa 0,0 l/m 0 min 0 min 126 W/m 9,7 km/h (2 Bft) 100,00 %
24.08.2020 18:04 22,6 C 21,1 C 20,0 C 58 % 1015,0 hPa 0,0 l/m 0 min 0 min 67 W/m 6,4 km/h (2 Bft) 97,87 %
24.08.2020 18:08 22,4 C 21,7 C 20,0 C 58 % 1015,0 hPa 0,0 l/m 0 min 0 min 130 W/m 12,9 km/h (3 Bft) 100,00 %
24.08.2020 18:10 22,3 C 22,8 C 20,0 C 58 % 1015,1 hPa 0,0 l/m 2 min 0 min 364 W/m 16,1 km/h (3 Bft) 100,00 %
24.08.2020 18:12 22,3 C 21,7 C 20,0 C 57 % 1015,1 hPa 0,0 l/m 2 min 0 min 310 W/m 6,4 km/h (2 Bft) 100,00 %
24.08.2020 18:14 22,2 C 21,7 C 20,0 C 57 % 1015,0 hPa 0,0 l/m 0 min 0 min 159 W/m 6,4 km/h (2 Bft) 100,00 %
24.08.2020 18:16 22,2 C 22,2 C 20,6 C 58 % 1015,0 hPa 0,0 l/m 0 min 0 min 165 W/m 3,2 km/h (1 Bft) 100,00 %
24.08.2020 18:18 22,2 C 22,8 C 20,6 C 57 % 1015,0 hPa 0,0 l/m 2 min 0 min 316 W/m 19,3 km/h (3 Bft) 100,00 %
24.08.2020 18:20 22,2 C 22,8 C 20,6 C 59 % 1015,0 hPa 0,0 l/m 2 min 0 min 409 W/m 9,7 km/h (2 Bft) 100,00 %
24.08.2020 18:22 22,2 C 22,8 C 20,6 C 58 % 1015,0 hPa 0,0 l/m 2 min 0 min 388 W/m 16,1 km/h (3 Bft) 100,00 %
24.08.2020 18:24 22,2 C 22,8 C 20,6 C 58 % 1014,9 hPa 0,0 l/m 2 min 0 min 367 W/m 12,9 km/h (3 Bft) 100,00 %
24.08.2020 18:26 22,2 C 22,8 C 20,0 C 59 % 1014,9 hPa 0,0 l/m 2 min 0 min 347 W/m 6,4 km/h (2 Bft) 100,00 %
24.08.2020 18:28 22,2 C 21,7 C 20,0 C 60 % 1015,0 hPa 0,0 l/m 2 min 0 min 185 W/m 12,9 km/h (3 Bft) 100,00 %
24.08.2020 18:30 22,1 C 21,1 C 20,0 C 58 % 1015,0 hPa 0,0 l/m 0 min 0 min 84 W/m 6,4 km/h (2 Bft) 100,00 %
24.08.2020 18:32 22,1 C 20,6 C 20,0 C 58 % 1014,9 hPa 0,0 l/m 0 min 0 min 80 W/m 6,4 km/h (2 Bft) 100,00 %
24.08.2020 18:34 22,1 C 20,6 C 20,0 C 58 % 1015,0 hPa 0,0 l/m 0 min 0 min 77 W/m 0,0 km/h (0 Bft) 100,00 %
24.08.2020 18:36 22,1 C 20,6 C 20,0 C 58 % 1015,0 hPa 0,0 l/m 0 min 0 min 111 W/m 0,0 km/h (0 Bft) 100,00 %
24.08.2020 18:38 22,0 C 20,6 C 20,0 C 58 % 1014,9 hPa 0,0 l/m 2 min 0 min 168 W/m 12,9 km/h (3 Bft) 100,00 %
24.08.2020 18:40 21,9 C 21,1 C 20,0 C 59 % 1014,9 hPa 0,0 l/m 2 min 0 min 153 W/m 12,9 km/h (3 Bft) 100,00 %
24.08.2020 18:42 21,9 C 21,1 C 20,0 C 60 % 1014,9 hPa 0,0 l/m 0 min 0 min 136 W/m 12,9 km/h (3 Bft) 97,87 %
24.08.2020 18:44 21,8 C 21,1 C 20,0 C 59 % 1014,9 hPa 0,0 l/m 0 min 0 min 136 W/m 6,4 km/h (2 Bft) 100,00 %
24.08.2020 18:46 21,8 C 21,1 C 20,0 C 59 % 1014,9 hPa 0,0 l/m 0 min 0 min 117 W/m 16,1 km/h (3 Bft) 97,87 %
24.08.2020 18:48 21,8 C 20,6 C 20,0 C 60 % 1014,9 hPa 0,0 l/m 0 min 0 min 92 W/m 6,4 km/h (2 Bft) 97,87 %
24.08.2020 18:50 21,7 C 20,6 C 20,0 C 60 % 1014,9 hPa 0,0 l/m 0 min 0 min 73 W/m 6,4 km/h (2 Bft) 97,83 %
24.08.2020 18:52 21,7 C 20,0 C 19,4 C 60 % 1014,9 hPa 0,0 l/m 0 min 0 min 57 W/m 6,4 km/h (2 Bft) 95,74 %
24.08.2020 18:54 21,6 C 20,0 C 19,4 C 61 % 1014,9 hPa 0,0 l/m 0 min 0 min 53 W/m 9,7 km/h (2 Bft) 95,74 %
24.08.2020 18:56 21,6 C 20,0 C 19,4 C 61 % 1014,9 hPa 0,0 l/m 0 min 0 min 56 W/m 12,9 km/h (3 Bft) 97,87 %
24.08.2020 18:58 21,5 C 20,0 C 19,4 C 61 % 1014,8 hPa 0,0 l/m 0 min 0 min 54 W/m 9,7 km/h (2 Bft) 97,87 %
24.08.2020 19:00 21,4 C 20,0 C 19,4 C 61 % 1014,8 hPa 0,0 l/m 0 min 0 min 42 W/m 9,7 km/h (2 Bft) 97,83 %
24.08.2020 19:02 21,3 C 20,0 C 19,4 C 61 % 1014,9 hPa 0,0 l/m 0 min 0 min 45 W/m 9,7 km/h (2 Bft) 97,87 %
24.08.2020 19:04 21,3 C 20,0 C 19,4 C 61 % 1014,9 hPa 0,0 l/m 0 min 0 min 46 W/m 9,7 km/h (2 Bft) 97,87 %
24.08.2020 19:06 21,3 C 20,0 C 19,4 C 62 % 1014,9 hPa 0,0 l/m 0 min 0 min 40 W/m 6,4 km/h (2 Bft) 95,74 %
24.08.2020 19:08 21,2 C 20,0 C 19,4 C 62 % 1014,9 hPa 0,0 l/m 0 min 0 min 31 W/m 16,1 km/h (3 Bft) 97,87 %
24.08.2020 19:10 21,2 C 19,4 C 19,4 C 62 % 1014,9 hPa 0,0 l/m 0 min 0 min 26 W/m 12,9 km/h (3 Bft) 97,87 %
24.08.2020 19:12 21,1 C 19,4 C 19,4 C 63 % 1014,8 hPa 0,0 l/m 0 min 0 min 21 W/m 12,9 km/h (3 Bft) 97,83 %
24.08.2020 19:14 21,1 C 19,4 C 19,4 C 63 % 1014,8 hPa 0,0 l/m 0 min 0 min 16 W/m 6,4 km/h (2 Bft) 97,87 %
24.08.2020 19:16 21,1 C 19,4 C 18,9 C 63 % 1014,9 hPa 0,0 l/m 0 min 0 min 11 W/m 6,4 km/h (2 Bft) 95,74 %
24.08.2020 19:18 21,0 C 19,4 C 18,9 C 64 % 1014,9 hPa 0,0 l/m 0 min 0 min 7 W/m 12,9 km/h (3 Bft) 97,87 %
24.08.2020 19:20 20,9 C 19,4 C 18,9 C 64 % 1014,9 hPa 0,0 l/m 0 min 0 min 7 W/m 6,4 km/h (2 Bft) 97,87 %
24.08.2020 19:22 20,9 C 19,4 C 18,9 C 64 % 1014,9 hPa 0,0 l/m 0 min 0 min 6 W/m 3,2 km/h (1 Bft) 93,62 %
24.08.2020 19:24 20,9 C 19,4 C 18,9 C 64 % 1014,9 hPa 0,0 l/m 0 min 0 min 5 W/m 0,0 km/h (0 Bft) 97,83 %
24.08.2020 19:26 20,8 C 18,9 C 18,9 C 65 % 1015,0 hPa 0,0 l/m 0 min 0 min 5 W/m 0,0 km/h (0 Bft) 97,87 %
24.08.2020 19:28 20,8 C 18,9 C 18,9 C 66 % 1015,0 hPa 0,0 l/m 0 min 0 min 7 W/m 12,9 km/h (3 Bft) 97,87 %
24.08.2020 19:30 20,7 C 18,3 C 18,9 C 68 % 1015,1 hPa 0,0 l/m 0 min 0 min 10 W/m 16,1 km/h (3 Bft) 95,74 %
24.08.2020 19:32 20,7 C 15,6 C 17,8 C 71 % 1015,3 hPa 0,8 l/m 0 min 2 min 17 W/m 16,1 km/h (3 Bft) 95,74 %
24.08.2020 19:34 20,6 C 15,0 C 15,6 C 75 % 1015,3 hPa 1,2 l/m 0 min 2 min 30 W/m 9,7 km/h (2 Bft) 97,87 %
24.08.2020 19:36 20,3 C 15,0 C 15,6 C 77 % 1015,3 hPa 0,2 l/m 0 min 2 min 34 W/m 6,4 km/h (2 Bft) 96,15 %
24.08.2020 19:38 20,1 C 15,0 C 15,6 C 78 % 1015,3 hPa 0,0 l/m 0 min 2 min 39 W/m 0,0 km/h (0 Bft) 100,00 %
24.08.2020 19:40 19,9 C 15,0 C 15,0 C 80 % 1015,4 hPa 0,0 l/m 0 min 2 min 48 W/m 0,0 km/h (0 Bft) 100,00 %
24.08.2020 19:42 19,7 C 15,0 C 15,0 C 80 % 1015,3 hPa 0,0 l/m 0 min 2 min 60 W/m 9,7 km/h (2 Bft) 100,00 %
24.08.2020 19:44 19,6 C 15,0 C 15,0 C 81 % 1015,3 hPa 0,0 l/m 2 min 2 min 71 W/m 3,2 km/h (1 Bft) 100,00 %
24.08.2020 19:46 19,4 C 15,0 C 15,0 C 82 % 1015,3 hPa 0,0 l/m 2 min 2 min 70 W/m 3,2 km/h (1 Bft) 97,87 %
24.08.2020 19:48 19,2 C 15,0 C 15,0 C 82 % 1015,3 hPa 0,2 l/m 2 min 2 min 64 W/m 0,0 km/h (0 Bft) 97,83 %
24.08.2020 19:50 19,1 C 15,0 C 15,0 C 83 % 1015,3 hPa 0,0 l/m 2 min 2 min 62 W/m 6,4 km/h (2 Bft) 97,87 %
24.08.2020 19:52 18,9 C 15,0 C 15,0 C 83 % 1015,3 hPa 0,0 l/m 2 min 2 min 57 W/m 6,4 km/h (2 Bft) 97,87 %
24.08.2020 19:54 18,8 C 15,0 C 15,0 C 84 % 1015,2 hPa 0,0 l/m 2 min 2 min 49 W/m 3,2 km/h (1 Bft) 91,49 %
24.08.2020 19:56 18,7 C 15,0 C 15,6 C 84 % 1015,2 hPa 0,0 l/m 0 min 0 min 38 W/m 3,2 km/h (1 Bft) 95,74 %
24.08.2020 19:58 18,6 C 15,0 C 15,0 C 85 % 1015,2 hPa 0,0 l/m 0 min 0 min 29 W/m 0,0 km/h (0 Bft) 97,83 %
24.08.2020 20:00 18,5 C 15,0 C 15,0 C 85 % 1015,2 hPa 0,0 l/m 0 min 0 min 22 W/m 0,0 km/h (0 Bft) 93,62 %
24.08.2020 20:02 18,4 C 15,0 C 15,0 C 85 % 1015,2 hPa 0,0 l/m 0 min 0 min 19 W/m 0,0 km/h (0 Bft) 95,74 %
24.08.2020 20:04 18,3 C 15,0 C 15,0 C 86 % 1015,2 hPa 0,0 l/m 0 min 0 min 14 W/m 0,0 km/h (0 Bft) 95,74 %
24.08.2020 20:06 18,2 C 15,0 C 15,0 C 86 % 1015,1 hPa 0,0 l/m 0 min 0 min 13 W/m 0,0 km/h (0 Bft) 95,74 %
24.08.2020 20:08 18,2 C 15,0 C 15,0 C 86 % 1015,2 hPa 0,0 l/m 0 min 0 min 11 W/m 0,0 km/h (0 Bft) 91,49 %
24.08.2020 20:10 18,1 C 14,4 C 15,0 C 87 % 1015,1 hPa 0,0 l/m 0 min 0 min 11 W/m 0,0 km/h (0 Bft) 95,65 %
24.08.2020 20:12 18,0 C 14,4 C 15,0 C 87 % 1015,2 hPa 0,0 l/m 0 min 0 min 11 W/m 0,0 km/h (0 Bft) 95,74 %
24.08.2020 20:14 17,9 C 14,4 C 15,0 C 87 % 1015,2 hPa 0,0 l/m 0 min 0 min 11 W/m 0,0 km/h (0 Bft) 93,62 %
24.08.2020 20:16 17,8 C 14,4 C 15,0 C 87 % 1015,2 hPa 0,0 l/m 0 min 0 min 9 W/m 0,0 km/h (0 Bft) 93,62 %
24.08.2020 20:18 17,7 C 14,4 C 15,0 C 88 % 1015,3 hPa 0,0 l/m 0 min 0 min 9 W/m 0,0 km/h (0 Bft) 95,74 %
24.08.2020 20:20 17,7 C 15,0 C 15,0 C 88 % 1015,3 hPa 0,0 l/m 0 min 0 min 9 W/m 0,0 km/h (0 Bft) 95,74 %
24.08.2020 20:22 17,6 C 15,0 C 15,0 C 88 % 1015,3 hPa 0,0 l/m 0 min 0 min 9 W/m 0,0 km/h (0 Bft) 95,65 %
24.08.2020 20:24 17,5 C 15,0 C 15,0 C 89 % 1015,2 hPa 0,0 l/m 0 min 0 min 9 W/m 0,0 km/h (0 Bft) 91,49 %
24.08.2020 20:26 17,4 C 15,0 C 15,0 C 89 % 1015,3 hPa 0,0 l/m 0 min 0 min 7 W/m 0,0 km/h (0 Bft) 95,74 %
24.08.2020 20:28 17,4 C 15,0 C 15,0 C 89 % 1015,4 hPa 0,0 l/m 0 min 0 min 7 W/m 0,0 km/h (0 Bft) 95,74 %
24.08.2020 20:30 17,3 C 15,0 C 15,0 C 89 % 1015,4 hPa 0,0 l/m 0 min 0 min 6 W/m 0,0 km/h (0 Bft) 94,83 %
24.08.2020 20:32 17,3 C 15,0 C 15,0 C 89 % 1015,4 hPa 0,0 l/m 0 min 0 min 5 W/m 0,0 km/h (0 Bft) 97,22 %
24.08.2020 20:34 17,2 C 15,0 C 15,0 C 90 % 1015,4 hPa 0,0 l/m 0 min 0 min 5 W/m 0,0 km/h (0 Bft) 91,38 %
24.08.2020 20:36 17,2 C 15,0 C 15,0 C 90 % 1015,4 hPa 0,0 l/m 0 min 0 min 5 W/m 0,0 km/h (0 Bft) 97,14 %
24.08.2020 20:38 17,2 C 15,0 C 15,0 C 90 % 1015,4 hPa 0,0 l/m 0 min 0 min 2 W/m 0,0 km/h (0 Bft) 96,61 %
24.08.2020 20:40 17,1 C 15,0 C 15,0 C 91 % 1015,5 hPa 0,0 l/m 0 min 0 min 0 W/m 0,0 km/h (0 Bft) 97,87 %
24.08.2020 20:42 17,1 C 15,0 C 15,0 C 91 % 1015,5 hPa 0,0 l/m 0 min 0 min 0 W/m 3,2 km/h (1 Bft) 97,14 %
24.08.2020 20:44 17,1 C 15,0 C 15,0 C 91 % 1015,5 hPa 0,0 l/m 0 min 0 min 0 W/m 0,0 km/h (0 Bft) 98,28 %
24.08.2020 20:46 17,1 C 15,0 C 15,0 C 91 % 1015,5 hPa 0,0 l/m 0 min 0 min 0 W/m 0,0 km/h (0 Bft) 97,87 %
24.08.2020 20:48 17,0 C 15,0 C 15,0 C 91 % 1015,5 hPa 0,0 l/m 0 min 0 min 0 W/m 6,4 km/h (2 Bft) 97,14 %
24.08.2020 20:50 17,0 C 15,0 C 15,0 C 91 % 1015,5 hPa 0,0 l/m 0 min 0 min 0 W/m 16,1 km/h (3 Bft) 98,31 %
24.08.2020 20:52 16,9 C 15,0 C 15,0 C 92 % 1015,5 hPa 0,0 l/m 0 min 0 min 0 W/m 6,4 km/h (2 Bft) 97,87 %
24.08.2020 20:54 16,9 C 15,0 C 15,0 C 92 % 1015,5 hPa 0,0 l/m 0 min 0 min 0 W/m 0,0 km/h (0 Bft) 100,00 %
24.08.2020 20:56 16,8 C 15,0 C 15,0 C 92 % 1015,5 hPa 0,0 l/m 0 min 0 min 0 W/m 3,2 km/h (1 Bft) 100,00 %
24.08.2020 20:58 16,8 C 15,0 C 15,0 C 92 % 1015,5 hPa 0,0 l/m 0 min 0 min 0 W/m 0,0 km/h (0 Bft) 100,00 %
24.08.2020 21:00 16,8 C 15,0 C 15,0 C 92 % 1015,5 hPa 0,0 l/m 0 min 0 min 0 W/m 0,0 km/h (0 Bft) 100,00 %
24.08.2020 21:02 16,8 C 15,0 C 14,4 C 92 % 1015,6 hPa 0,0 l/m 0 min 0 min 0 W/m 0,0 km/h (0 Bft) 100,00 %
24.08.2020 21:04 16,7 C 15,0 C 14,4 C 92 % 1015,6 hPa 0,0 l/m 0 min 0 min 0 W/m 0,0 km/h (0 Bft) 100,00 %
24.08.2020 21:06 16,7 C 14,4 C 14,4 C 92 % 1015,6 hPa 0,0 l/m 0 min 0 min 0 W/m 0,0 km/h (0 Bft) 100,00 %
24.08.2020 21:08 16,7 C 14,4 C 14,4 C 92 % 1015,7 hPa 0,0 l/m 0 min 0 min 0 W/m 0,0 km/h (0 Bft) 98,28 %
24.08.2020 21:10 16,6 C 14,4 C 14,4 C 92 % 1015,6 hPa 0,0 l/m 0 min 0 min 0 W/m 3,2 km/h (1 Bft) 100,00 %
24.08.2020 21:12 16,6 C 14,4 C 13,9 C 92 % 1015,7 hPa 0,0 l/m 0 min 0 min 0 W/m 3,2 km/h (1 Bft) 97,87 %
24.08.2020 21:14 16,5 C 14,4 C 13,9 C 92 % 1015,7 hPa 0,0 l/m 0 min 0 min 0 W/m 3,2 km/h (1 Bft) 100,00 %
24.08.2020 21:16 16,4 C 14,4 C 13,9 C 92 % 1015,7 hPa 0,0 l/m 0 min 0 min 0 W/m 0,0 km/h (0 Bft) 100,00 %
24.08.2020 21:18 16,3 C 13,9 C 13,9 C 92 % 1015,8 hPa 0,0 l/m 0 min 0 min 0 W/m 0,0 km/h (0 Bft) 100,00 %
24.08.2020 21:20 16,3 C 13,9 C 13,9 C 92 % 1015,8 hPa 0,0 l/m 0 min 0 min 0 W/m 3,2 km/h (1 Bft) 100,00 %
24.08.2020 21:22 16,2 C 13,9 C 13,9 C 92 % 1015,7 hPa 0,0 l/m 0 min 0 min 0 W/m 0,0 km/h (0 Bft) 100,00 %
24.08.2020 21:24 16,2 C 13,9 C 13,9 C 92 % 1015,8 hPa 0,0 l/m 0 min 0 min 0 W/m 0,0 km/h (0 Bft) 100,00 %
24.08.2020 21:26 16,1 C 14,4 C 13,9 C 92 % 1015,8 hPa 0,0 l/m 0 min 0 min 0 W/m 3,2 km/h (1 Bft) 100,00 %
24.08.2020 21:28 16,1 C 14,4 C 13,9 C 92 % 1015,7 hPa 0,0 l/m 0 min 0 min 0 W/m 0,0 km/h (0 Bft) 97,83 %
24.08.2020 21:30 16,1 C 14,4 C 13,9 C 92 % 1015,7 hPa 0,0 l/m 0 min 0 min 0 W/m 0,0 km/h (0 Bft) 100,00 %
24.08.2020 21:32 16,0 C 14,4 C 13,9 C 92 % 1015,8 hPa 0,0 l/m 0 min 0 min 0 W/m 6,4 km/h (2 Bft) 98,28 %
24.08.2020 21:34 16,0 C 14,4 C 13,9 C 92 % 1015,7 hPa 0,0 l/m 0 min 0 min 0 W/m 3,2 km/h (1 Bft) 100,00 %
24.08.2020 21:36 15,9 C 14,4 C 13,9 C 92 % 1015,8 hPa 0,0 l/m 0 min 0 min 0 W/m 6,4 km/h (2 Bft) 97,87 %
24.08.2020 21:38 15,9 C 14,4 C 13,9 C 92 % 1015,7 hPa 0,0 l/m 0 min 0 min 0 W/m 0,0 km/h (0 Bft) 100,00 %
24.08.2020 21:40 15,9 C 14,4 C 13,9 C 92 % 1015,7 hPa 0,0 l/m 0 min 0 min 0 W/m 0,0 km/h (0 Bft) 97,83 %
24.08.2020 21:42 15,9 C 14,4 C 13,9 C 92 % 1015,8 hPa 0,0 l/m 0 min 0 min 0 W/m 0,0 km/h (0 Bft) 100,00 %
24.08.2020 21:44 15,9 C 14,4 C 13,9 C 92 % 1015,7 hPa 0,0 l/m 0 min 0 min 0 W/m 0,0 km/h (0 Bft) 97,83 %
24.08.2020 21:46 15,8 C 14,4 C 13,9 C 92 % 1015,7 hPa 0,0 l/m 0 min 0 min 0 W/m 0,0 km/h (0 Bft) 100,00 %
24.08.2020 21:48 15,8 C 14,4 C 13,9 C 92 % 1015,7 hPa 0,0 l/m 0 min 0 min 0 W/m 0,0 km/h (0 Bft) 100,00 %
24.08.2020 21:50 15,8 C 14,4 C 13,9 C 92 % 1015,7 hPa 0,0 l/m 0 min 0 min 0 W/m 0,0 km/h (0 Bft) 100,00 %
24.08.2020 21:52 15,8 C 14,4 C 13,9 C 92 % 1015,8 hPa 0,0 l/m 0 min 0 min 0 W/m 0,0 km/h (0 Bft) 100,00 %
24.08.2020 21:54 15,8 C 14,4 C 13,9 C 93 % 1015,8 hPa 0,0 l/m 0 min 0 min 0 W/m 0,0 km/h (0 Bft) 100,00 %
24.08.2020 21:56 15,8 C 14,4 C 13,9 C 93 % 1015,8 hPa 0,0 l/m 0 min 0 min 0 W/m 3,2 km/h (1 Bft) 100,00 %
24.08.2020 21:58 15,8 C 14,4 C 13,9 C 93 % 1015,8 hPa 0,0 l/m 0 min 0 min 0 W/m 0,0 km/h (0 Bft) 97,87 %
24.08.2020 22:00 15,8 C 14,4 C 13,9 C 93 % 1015,8 hPa 0,0 l/m 0 min 0 min 0 W/m 0,0 km/h (0 Bft) 98,31 %
24.08.2020 22:02 15,8 C 14,4 C 13,9 C 93 % 1015,8 hPa 0,0 l/m 0 min 0 min 0 W/m 0,0 km/h (0 Bft) 100,00 %
24.08.2020 22:04 15,8 C 14,4 C 13,9 C 93 % 1015,8 hPa 0,0 l/m 0 min 0 min 0 W/m 0,0 km/h (0 Bft) 97,22 %
24.08.2020 22:06 15,8 C 14,4 C 13,9 C 93 % 1015,8 hPa 0,0 l/m 0 min 0 min 0 W/m 6,4 km/h (2 Bft) 100,00 %
24.08.2020 22:08 15,8 C 14,4 C 13,9 C 93 % 1015,8 hPa 0,0 l/m 0 min 0 min 0 W/m 3,2 km/h (1 Bft) 100,00 %
24.08.2020 22:10 15,8 C 14,4 C 13,9 C 94 % 1015,8 hPa 0,0 l/m 0 min 0 min 0 W/m 3,2 km/h (1 Bft) 97,14 %
24.08.2020 22:12 15,8 C 14,4 C 13,9 C 93 % 1015,8 hPa 0,0 l/m 0 min 0 min 0 W/m 0,0 km/h (0 Bft) 100,00 %
24.08.2020 22:14 15,8 C 14,4 C 13,9 C 94 % 1015,7 hPa 0,0 l/m 0 min 0 min 0 W/m 0,0 km/h (0 Bft) 100,00 %
24.08.2020 22:16 15,8 C 14,4 C 13,9 C 94 % 1015,7 hPa 0,0 l/m 0 min 0 min 0 W/m 0,0 km/h (0 Bft) 100,00 %
24.08.2020 22:18 15,8 C 14,4 C 13,9 C 94 % 1015,7 hPa 0,0 l/m 0 min 0 min 0 W/m 0,0 km/h (0 Bft) 98,28 %
24.08.2020 22:20 15,8 C 14,4 C 13,9 C 94 % 1015,7 hPa 0,0 l/m 0 min 0 min 0 W/m 6,4 km/h (2 Bft) 100,00 %
24.08.2020 22:22 15,8 C 14,4 C 13,9 C 94 % 1015,7 hPa 0,0 l/m 0 min 0 min 0 W/m 3,2 km/h (1 Bft) 100,00 %
24.08.2020 22:24 15,8 C 14,4 C 13,9 C 94 % 1015,7 hPa 0,0 l/m 0 min 0 min 0 W/m 3,2 km/h (1 Bft) 100,00 %
24.08.2020 22:26 15,8 C 14,4 C 13,9 C 94 % 1015,7 hPa 0,0 l/m 0 min 0 min 0 W/m 0,0 km/h (0 Bft) 100,00 %
24.08.2020 22:28 15,8 C 14,4 C 13,9 C 94 % 1015,7 hPa 0,0 l/m 0 min 0 min 0 W/m 3,2 km/h (1 Bft) 100,00 %
24.08.2020 22:30 15,8 C 14,4 C 13,9 C 94 % 1015,7 hPa 0,0 l/m 0 min 0 min 0 W/m 0,0 km/h (0 Bft) 97,87 %
24.08.2020 22:32 15,8 C 14,4 C 13,9 C 94 % 1015,7 hPa 0,0 l/m 0 min 0 min 0 W/m 0,0 km/h (0 Bft) 94,29 %
24.08.2020 22:34 15,8 C 14,4 C 13,9 C 94 % 1015,7 hPa 0,0 l/m 0 min 0 min 0 W/m 0,0 km/h (0 Bft) 97,87 %
24.08.2020 22:36 15,8 C 14,4 C 13,9 C 94 % 1015,7 hPa 0,0 l/m 0 min 0 min 0 W/m 3,2 km/h (1 Bft) 97,87 %
24.08.2020 22:38 15,7 C 14,4 C 13,9 C 94 % 1015,7 hPa 0,0 l/m 0 min 0 min 0 W/m 0,0 km/h (0 Bft) 95,74 %
24.08.2020 22:40 15,7 C 14,4 C 13,9 C 94 % 1015,7 hPa 0,0 l/m 0 min 0 min 0 W/m 0,0 km/h (0 Bft) 95,74 %
24.08.2020 22:42 15,7 C 14,4 C 13,9 C 94 % 1015,7 hPa 0,0 l/m 0 min 0 min 0 W/m 0,0 km/h (0 Bft) 95,65 %
24.08.2020 22:44 15,7 C 13,9 C 13,9 C 94 % 1015,7 hPa 0,0 l/m 0 min 0 min 0 W/m 0,0 km/h (0 Bft) 97,87 %
24.08.2020 22:46 15,7 C 13,9 C 13,9 C 94 % 1015,7 hPa 0,0 l/m 0 min 0 min 0 W/m 0,0 km/h (0 Bft) 95,74 %
24.08.2020 22:48 15,7 C 13,9 C 13,9 C 94 % 1015,7 hPa 0,0 l/m 0 min 0 min 0 W/m 0,0 km/h (0 Bft) 93,62 %
24.08.2020 22:50 15,7 C 13,9 C 13,9 C 94 % 1015,7 hPa 0,0 l/m 0 min 0 min 0 W/m 0,0 km/h (0 Bft) 93,62 %
24.08.2020 22:52 15,7 C 13,9 C 13,9 C 94 % 1015,6 hPa 0,0 l/m 0 min 0 min 0 W/m 0,0 km/h (0 Bft) 89,36 %
24.08.2020 22:54 15,7 C 13,9 C 13,3 C 94 % 1015,7 hPa 0,0 l/m 0 min 0 min 0 W/m 0,0 km/h (0 Bft) 91,30 %
24.08.2020 22:56 15,7 C 13,9 C 13,3 C 94 % 1015,7 hPa 0,0 l/m 0 min 0 min 0 W/m 0,0 km/h (0 Bft) 91,49 %
24.08.2020 22:58 15,6 C 13,9 C 13,3 C 94 % 1015,7 hPa 0,0 l/m 0 min 0 min 0 W/m 0,0 km/h (0 Bft) 91,49 %
24.08.2020 23:00 15,6 C 13,9 C 13,3 C 94 % 1015,7 hPa 0,0 l/m 0 min 0 min 0 W/m 0,0 km/h (0 Bft) 93,62 %
24.08.2020 23:02 15,6 C 13,9 C 13,3 C 94 % 1015,6 hPa 0,0 l/m 0 min 0 min 0 W/m 0,0 km/h (0 Bft) 91,38 %
24.08.2020 23:04 15,6 C 13,3 C 13,3 C 94 % 1015,6 hPa 0,0 l/m 0 min 0 min 0 W/m 0,0 km/h (0 Bft) 92,68 %
24.08.2020 23:06 15,6 C 13,3 C 13,3 C 94 % 1015,7 hPa 0,0 l/m 0 min 0 min 0 W/m 0,0 km/h (0 Bft) 93,62 %
24.08.2020 23:08 15,6 C 13,3 C 13,3 C 94 % 1015,7 hPa 0,0 l/m 0 min 0 min 0 W/m 0,0 km/h (0 Bft) 91,49 %
24.08.2020 23:10 15,5 C 13,3 C 13,3 C 94 % 1015,7 hPa 0,0 l/m 0 min 0 min 0 W/m 0,0 km/h (0 Bft) 91,49 %
24.08.2020 23:12 15,4 C 13,3 C 12,8 C 94 % 1015,6 hPa 0,0 l/m 0 min 0 min 0 W/m 0,0 km/h (0 Bft) 93,62 %
24.08.2020 23:14 15,4 C 13,3 C 12,8 C 94 % 1015,7 hPa 0,0 l/m 0 min 0 min 0 W/m 0,0 km/h (0 Bft) 93,48 %
24.08.2020 23:16 15,4 C 13,3 C 12,8 C 94 % 1015,7 hPa 0,0 l/m 0 min 0 min 0 W/m 0,0 km/h (0 Bft) 93,62 %
24.08.2020 23:18 15,4 C 13,3 C 12,8 C 94 % 1015,6 hPa 0,0 l/m 0 min 0 min 0 W/m 0,0 km/h (0 Bft) 93,62 %
24.08.2020 23:20 15,3 C 13,3 C 12,8 C 94 % 1015,6 hPa 0,0 l/m 0 min 0 min 0 W/m 0,0 km/h (0 Bft) 93,62 %
24.08.2020 23:22 15,3 C 13,3 C 12,8 C 94 % 1015,6 hPa 0,0 l/m 0 min 0 min 0 W/m 0,0 km/h (0 Bft) 90,74 %
24.08.2020 23:24 15,3 C 12,8 C 12,8 C 94 % 1015,6 hPa 0,0 l/m 0 min 0 min 0 W/m 0,0 km/h (0 Bft) 94,74 %
24.08.2020 23:26 15,3 C 12,8 C 12,8 C 94 % 1015,6 hPa 0,0 l/m 0 min 0 min 0 W/m 0,0 km/h (0 Bft) 93,62 %
24.08.2020 23:28 15,2 C 12,8 C 12,8 C 94 % 1015,6 hPa 0,0 l/m 0 min 0 min 0 W/m 0,0 km/h (0 Bft) 95,74 %
24.08.2020 23:30 15,2 C 12,8 C 12,8 C 94 % 1015,6 hPa 0,0 l/m 0 min 0 min 0 W/m 0,0 km/h (0 Bft) 95,74 %
24.08.2020 23:32 15,2 C 12,8 C 12,8 C 94 % 1015,6 hPa 0,0 l/m 0 min 0 min 0 W/m 0,0 km/h (0 Bft) 95,74 %
24.08.2020 23:34 15,1 C 12,8 C 12,8 C 94 % 1015,6 hPa 0,0 l/m 0 min 0 min 0 W/m 0,0 km/h (0 Bft) 95,74 %
24.08.2020 23:36 15,1 C 12,8 C 12,8 C 94 % 1015,6 hPa 0,0 l/m 0 min 0 min 0 W/m 0,0 km/h (0 Bft) 95,65 %
24.08.2020 23:38 15,1 C 12,8 C 12,8 C 94 % 1015,6 hPa 0,0 l/m 0 min 0 min 0 W/m 0,0 km/h (0 Bft) 95,74 %
24.08.2020 23:40 15,0 C 12,8 C 12,8 C 94 % 1015,6 hPa 0,0 l/m 0 min 0 min 0 W/m 0,0 km/h (0 Bft) 100,00 %
24.08.2020 23:42 15,0 C 12,8 C 12,8 C 93 % 1015,7 hPa 0,0 l/m 0 min 0 min 0 W/m 0,0 km/h (0 Bft) 100,00 %
24.08.2020 23:44 15,0 C 12,8 C 12,8 C 93 % 1015,7 hPa 0,0 l/m 0 min 0 min 0 W/m 0,0 km/h (0 Bft) 100,00 %
24.08.2020 23:46 14,9 C 12,8 C 12,2 C 93 % 1015,7 hPa 0,0 l/m 0 min 0 min 0 W/m 0,0 km/h (0 Bft) 100,00 %
24.08.2020 23:48 14,9 C 12,8 C 12,2 C 93 % 1015,7 hPa 0,0 l/m 0 min 0 min 0 W/m 0,0 km/h (0 Bft) 100,00 %
24.08.2020 23:50 14,9 C 12,2 C 12,2 C 93 % 1015,8 hPa 0,0 l/m 0 min 0 min 0 W/m 0,0 km/h (0 Bft) 100,00 %
24.08.2020 23:52 14,8 C 12,2 C 12,2 C 93 % 1015,8 hPa 0,0 l/m 0 min 0 min 0 W/m 0,0 km/h (0 Bft) 95,74 %
24.08.2020 23:54 14,8 C 12,2 C 12,2 C 93 % 1015,8 hPa 0,0 l/m 0 min 0 min 0 W/m 0,0 km/h (0 Bft) 97,87 %
24.08.2020 23:56 14,8 C 12,2 C 12,2 C 93 % 1015,8 hPa 0,0 l/m 0 min 0 min 0 W/m 0,0 km/h (0 Bft) 100,00 %
24.08.2020 23:58 14,7 C 12,2 C 12,2 C 93 % 1015,8 hPa 0,0 l/m 0 min 0 min 0 W/m 0,0 km/h (0 Bft) 100,00 %
_ Min-Zeit 23:58 23:50 23:46 17:32 18:58 - - - - 00:04 00:07
Minimum _ 14,7 C 12,2 C 12,2 C 56 % 1014,8 hPa - - - - 0,0 km/h (0 Bft) 72,15 %
_ Max-Zeit 17:30 13:02 17:08 22:10 00:00 19:34 08:54 19:32 13:04 13:46 00:02
Maximum _ 22,6 C 26,7 C 22,2 C 94 % 1017,1 hPa 1,2 l/m 2 min 2 min 1050 W/m 32,2 km/h
S-SO (5 Bft)
100,00 %
Durchschnitt _ 17,9 C 17,5 C 16,7 C 81 % 1015,9 hPa #2,4 l/m #3:32 h #24 min. 213 W/m 8,4 km/h (2 Bft) 97,43 %
© 2020 W. Hausmann